<?xml version="1.0" encoding="UTF-8" standalone="no" ?>
<gpx xmlns="http://www.topografix.com/GPX/1/1" xmlns:xsi="http://www.w3.org/2001/XMLSchema-instance" xsi:schemaLocation="http://www.topografix.com/GPX/1/1 http://www.topografix.com/GPX/1/1/gpx.xsd" version="1.1" creator="VisuGPX - https://www.visugpx.com">
  <metadata>
    <name>Dondas - Sabré - 17 août 2017</name>
    <desc><![CDATA[Dondas - Sabré - 17 août 2017 --------------]]></desc>
  </metadata>
  <trk>
    <name><![CDATA[2017-08-17T08:54:52Z]]></name>
    <trkseg>
      <trkpt lat="44.22003" lon="0.84555">
        <ele>171.95</ele>
        <time>2017-08-17T08:54:53Z</time>
      </trkpt>
      <trkpt lat="44.22003" lon="0.84555">
        <ele>171.97</ele>
        <time>2017-08-17T08:55:00Z</time>
      </trkpt>
      <trkpt lat="44.22002" lon="0.84563">
        <ele>171.28</ele>
        <time>2017-08-17T08:55:06Z</time>
      </trkpt>
      <trkpt lat="44.21998" lon="0.84562">
        <ele>171.221</ele>
        <time>2017-08-17T08:55:09Z</time>
      </trkpt>
      <trkpt lat="44.21992" lon="0.84561">
        <ele>172.011</ele>
        <time>2017-08-17T08:55:15Z</time>
      </trkpt>
      <trkpt lat="44.21987" lon="0.84558">
        <ele>171.411</ele>
        <time>2017-08-17T08:55:20Z</time>
      </trkpt>
      <trkpt lat="44.21985" lon="0.84556">
        <ele>170.9</ele>
        <time>2017-08-17T08:55:28Z</time>
      </trkpt>
      <trkpt lat="44.21985" lon="0.84555">
        <ele>170.83</ele>
        <time>2017-08-17T08:55:44Z</time>
      </trkpt>
      <trkpt lat="44.21984" lon="0.84537">
        <ele>171.881</ele>
        <time>2017-08-17T08:55:52Z</time>
      </trkpt>
      <trkpt lat="44.21986" lon="0.84506">
        <ele>170.27</ele>
        <time>2017-08-17T08:55:59Z</time>
      </trkpt>
      <trkpt lat="44.2199" lon="0.84479">
        <ele>170.05</ele>
        <time>2017-08-17T08:56:07Z</time>
      </trkpt>
      <trkpt lat="44.21996" lon="0.84456">
        <ele>169.71</ele>
        <time>2017-08-17T08:56:14Z</time>
      </trkpt>
      <trkpt lat="44.22002" lon="0.84427">
        <ele>171.1</ele>
        <time>2017-08-17T08:56:22Z</time>
      </trkpt>
      <trkpt lat="44.2201" lon="0.84395">
        <ele>171.379</ele>
        <time>2017-08-17T08:56:32Z</time>
      </trkpt>
      <trkpt lat="44.22015" lon="0.84385">
        <ele>170.019</ele>
        <time>2017-08-17T08:56:37Z</time>
      </trkpt>
      <trkpt lat="44.22016" lon="0.84382">
        <ele>168.12</ele>
        <time>2017-08-17T08:56:46Z</time>
      </trkpt>
      <trkpt lat="44.22021" lon="0.84371">
        <ele>166.178</ele>
        <time>2017-08-17T08:56:50Z</time>
      </trkpt>
      <trkpt lat="44.22023" lon="0.84367">
        <ele>165.568</ele>
        <time>2017-08-17T08:56:51Z</time>
      </trkpt>
      <trkpt lat="44.22031" lon="0.84356">
        <ele>163.956</ele>
        <time>2017-08-17T08:56:53Z</time>
      </trkpt>
      <trkpt lat="44.22042" lon="0.84328">
        <ele>161.336</ele>
        <time>2017-08-17T08:56:57Z</time>
      </trkpt>
      <trkpt lat="44.22051" lon="0.84297">
        <ele>157.235</ele>
        <time>2017-08-17T08:57:01Z</time>
      </trkpt>
      <trkpt lat="44.2207" lon="0.84259">
        <ele>154.835</ele>
        <time>2017-08-17T08:57:05Z</time>
      </trkpt>
      <trkpt lat="44.22096" lon="0.84208">
        <ele>152.126</ele>
        <time>2017-08-17T08:57:10Z</time>
      </trkpt>
      <trkpt lat="44.22112" lon="0.84171">
        <ele>148.205</ele>
        <time>2017-08-17T08:57:14Z</time>
      </trkpt>
      <trkpt lat="44.22124" lon="0.84146">
        <ele>144.983</ele>
        <time>2017-08-17T08:57:17Z</time>
      </trkpt>
      <trkpt lat="44.22151" lon="0.84117">
        <ele>141.133</ele>
        <time>2017-08-17T08:57:21Z</time>
      </trkpt>
      <trkpt lat="44.22169" lon="0.84108">
        <ele>137.372</ele>
        <time>2017-08-17T08:57:23Z</time>
      </trkpt>
      <trkpt lat="44.22225" lon="0.84087">
        <ele>126.75</ele>
        <time>2017-08-17T08:57:29Z</time>
      </trkpt>
      <trkpt lat="44.22264" lon="0.84078">
        <ele>122.545</ele>
        <time>2017-08-17T08:57:33Z</time>
      </trkpt>
      <trkpt lat="44.22304" lon="0.84068">
        <ele>118.455</ele>
        <time>2017-08-17T08:57:38Z</time>
      </trkpt>
      <trkpt lat="44.22344" lon="0.84048">
        <ele>114.034</ele>
        <time>2017-08-17T08:57:43Z</time>
      </trkpt>
      <trkpt lat="44.22392" lon="0.8402">
        <ele>110.917</ele>
        <time>2017-08-17T08:57:49Z</time>
      </trkpt>
      <trkpt lat="44.22431" lon="0.83998">
        <ele>109.087</ele>
        <time>2017-08-17T08:57:54Z</time>
      </trkpt>
      <trkpt lat="44.22474" lon="0.83972">
        <ele>105.196</ele>
        <time>2017-08-17T08:58:00Z</time>
      </trkpt>
      <trkpt lat="44.22499" lon="0.83956">
        <ele>101.806</ele>
        <time>2017-08-17T08:58:04Z</time>
      </trkpt>
      <trkpt lat="44.22504" lon="0.83952">
        <ele>101.117</ele>
        <time>2017-08-17T08:58:05Z</time>
      </trkpt>
      <trkpt lat="44.22516" lon="0.83933">
        <ele>99.4</ele>
        <time>2017-08-17T08:58:09Z</time>
      </trkpt>
      <trkpt lat="44.2251" lon="0.83923">
        <ele>99.241</ele>
        <time>2017-08-17T08:58:12Z</time>
      </trkpt>
      <trkpt lat="44.2249" lon="0.83892">
        <ele>99.262</ele>
        <time>2017-08-17T08:58:21Z</time>
      </trkpt>
      <trkpt lat="44.22468" lon="0.83859">
        <ele>99.542</ele>
        <time>2017-08-17T08:58:31Z</time>
      </trkpt>
      <trkpt lat="44.2245" lon="0.83832">
        <ele>99.942</ele>
        <time>2017-08-17T08:58:38Z</time>
      </trkpt>
      <trkpt lat="44.22425" lon="0.83797">
        <ele>100.151</ele>
        <time>2017-08-17T08:58:46Z</time>
      </trkpt>
      <trkpt lat="44.22394" lon="0.83763">
        <ele>98.95</ele>
        <time>2017-08-17T08:58:54Z</time>
      </trkpt>
      <trkpt lat="44.22363" lon="0.83738">
        <ele>97.811</ele>
        <time>2017-08-17T08:59:01Z</time>
      </trkpt>
      <trkpt lat="44.22323" lon="0.83711">
        <ele>96.43</ele>
        <time>2017-08-17T08:59:10Z</time>
      </trkpt>
      <trkpt lat="44.22275" lon="0.83679">
        <ele>95.2</ele>
        <time>2017-08-17T08:59:19Z</time>
      </trkpt>
      <trkpt lat="44.22244" lon="0.83654">
        <ele>94.54</ele>
        <time>2017-08-17T08:59:25Z</time>
      </trkpt>
      <trkpt lat="44.22217" lon="0.83615">
        <ele>93.9</ele>
        <time>2017-08-17T08:59:32Z</time>
      </trkpt>
      <trkpt lat="44.22209" lon="0.83604">
        <ele>93.89</ele>
        <time>2017-08-17T08:59:34Z</time>
      </trkpt>
      <trkpt lat="44.22173" lon="0.83545">
        <ele>93.73</ele>
        <time>2017-08-17T08:59:44Z</time>
      </trkpt>
      <trkpt lat="44.22142" lon="0.83514">
        <ele>93.39</ele>
        <time>2017-08-17T08:59:51Z</time>
      </trkpt>
      <trkpt lat="44.22099" lon="0.83472">
        <ele>92.35</ele>
        <time>2017-08-17T09:00:01Z</time>
      </trkpt>
      <trkpt lat="44.22063" lon="0.83428">
        <ele>91.429</ele>
        <time>2017-08-17T09:00:10Z</time>
      </trkpt>
      <trkpt lat="44.22054" lon="0.83394">
        <ele>91.708</ele>
        <time>2017-08-17T09:00:15Z</time>
      </trkpt>
      <trkpt lat="44.22054" lon="0.83386">
        <ele>91.869</ele>
        <time>2017-08-17T09:00:16Z</time>
      </trkpt>
      <trkpt lat="44.22056" lon="0.83318">
        <ele>91.518</ele>
        <time>2017-08-17T09:00:26Z</time>
      </trkpt>
      <trkpt lat="44.22056" lon="0.83295">
        <ele>92.268</ele>
        <time>2017-08-17T09:00:31Z</time>
      </trkpt>
      <trkpt lat="44.22055" lon="0.83287">
        <ele>92.208</ele>
        <time>2017-08-17T09:00:36Z</time>
      </trkpt>
      <trkpt lat="44.22054" lon="0.83284">
        <ele>92.228</ele>
        <time>2017-08-17T09:00:42Z</time>
      </trkpt>
      <trkpt lat="44.22054" lon="0.83283">
        <ele>92.158</ele>
        <time>2017-08-17T09:00:43Z</time>
      </trkpt>
      <trkpt lat="44.22052" lon="0.83267">
        <ele>91.588</ele>
        <time>2017-08-17T09:00:49Z</time>
      </trkpt>
      <trkpt lat="44.22046" lon="0.83239">
        <ele>92.878</ele>
        <time>2017-08-17T09:00:55Z</time>
      </trkpt>
      <trkpt lat="44.22043" lon="0.83228">
        <ele>93.008</ele>
        <time>2017-08-17T09:00:57Z</time>
      </trkpt>
      <trkpt lat="44.22031" lon="0.83208">
        <ele>93.148</ele>
        <time>2017-08-17T09:01:01Z</time>
      </trkpt>
      <trkpt lat="44.22004" lon="0.83185">
        <ele>92.577</ele>
        <time>2017-08-17T09:01:07Z</time>
      </trkpt>
      <trkpt lat="44.21989" lon="0.83163">
        <ele>92.627</ele>
        <time>2017-08-17T09:01:11Z</time>
      </trkpt>
      <trkpt lat="44.21986" lon="0.83152">
        <ele>92.528</ele>
        <time>2017-08-17T09:01:13Z</time>
      </trkpt>
      <trkpt lat="44.21975" lon="0.83108">
        <ele>93.358</ele>
        <time>2017-08-17T09:01:22Z</time>
      </trkpt>
      <trkpt lat="44.21962" lon="0.83082">
        <ele>94.968</ele>
        <time>2017-08-17T09:01:29Z</time>
      </trkpt>
      <trkpt lat="44.21949" lon="0.83062">
        <ele>96.289</ele>
        <time>2017-08-17T09:01:37Z</time>
      </trkpt>
      <trkpt lat="44.21934" lon="0.83039">
        <ele>97.549</ele>
        <time>2017-08-17T09:01:44Z</time>
      </trkpt>
      <trkpt lat="44.21912" lon="0.83007">
        <ele>97.147</ele>
        <time>2017-08-17T09:01:51Z</time>
      </trkpt>
      <trkpt lat="44.21895" lon="0.82971">
        <ele>93.865</ele>
        <time>2017-08-17T09:01:56Z</time>
      </trkpt>
      <trkpt lat="44.21876" lon="0.82922">
        <ele>89.996</ele>
        <time>2017-08-17T09:02:02Z</time>
      </trkpt>
      <trkpt lat="44.21859" lon="0.82887">
        <ele>89.627</ele>
        <time>2017-08-17T09:02:07Z</time>
      </trkpt>
      <trkpt lat="44.21829" lon="0.82835">
        <ele>88.886</ele>
        <time>2017-08-17T09:02:16Z</time>
      </trkpt>
      <trkpt lat="44.21806" lon="0.82803">
        <ele>89.537</ele>
        <time>2017-08-17T09:02:23Z</time>
      </trkpt>
      <trkpt lat="44.21788" lon="0.82778">
        <ele>90.887</ele>
        <time>2017-08-17T09:02:29Z</time>
      </trkpt>
      <trkpt lat="44.21754" lon="0.82738">
        <ele>91.566</ele>
        <time>2017-08-17T09:02:39Z</time>
      </trkpt>
      <trkpt lat="44.21717" lon="0.82687">
        <ele>91.056</ele>
        <time>2017-08-17T09:02:49Z</time>
      </trkpt>
      <trkpt lat="44.2169" lon="0.82641">
        <ele>90.106</ele>
        <time>2017-08-17T09:02:57Z</time>
      </trkpt>
      <trkpt lat="44.21658" lon="0.82585">
        <ele>88.155</ele>
        <time>2017-08-17T09:03:07Z</time>
      </trkpt>
      <trkpt lat="44.21638" lon="0.8254">
        <ele>85.223</ele>
        <time>2017-08-17T09:03:14Z</time>
      </trkpt>
      <trkpt lat="44.21621" lon="0.82491">
        <ele>84.774</ele>
        <time>2017-08-17T09:03:22Z</time>
      </trkpt>
      <trkpt lat="44.21613" lon="0.82468">
        <ele>84.434</ele>
        <time>2017-08-17T09:03:26Z</time>
      </trkpt>
      <trkpt lat="44.21594" lon="0.82417">
        <ele>83.305</ele>
        <time>2017-08-17T09:03:35Z</time>
      </trkpt>
      <trkpt lat="44.21577" lon="0.82364">
        <ele>82.715</ele>
        <time>2017-08-17T09:03:45Z</time>
      </trkpt>
      <trkpt lat="44.2156" lon="0.82308">
        <ele>82.605</ele>
        <time>2017-08-17T09:03:56Z</time>
      </trkpt>
      <trkpt lat="44.21546" lon="0.82261">
        <ele>81.954</ele>
        <time>2017-08-17T09:04:05Z</time>
      </trkpt>
      <trkpt lat="44.21526" lon="0.82192">
        <ele>80.863</ele>
        <time>2017-08-17T09:04:15Z</time>
      </trkpt>
      <trkpt lat="44.21518" lon="0.8217">
        <ele>81.063</ele>
        <time>2017-08-17T09:04:18Z</time>
      </trkpt>
      <trkpt lat="44.21497" lon="0.82137">
        <ele>81.824</ele>
        <time>2017-08-17T09:04:24Z</time>
      </trkpt>
      <trkpt lat="44.21471" lon="0.82114">
        <ele>82.334</ele>
        <time>2017-08-17T09:04:31Z</time>
      </trkpt>
      <trkpt lat="44.21448" lon="0.82082">
        <ele>82.313</ele>
        <time>2017-08-17T09:04:39Z</time>
      </trkpt>
      <trkpt lat="44.2143" lon="0.82039">
        <ele>81.723</ele>
        <time>2017-08-17T09:04:47Z</time>
      </trkpt>
      <trkpt lat="44.21409" lon="0.81982">
        <ele>80.673</ele>
        <time>2017-08-17T09:04:57Z</time>
      </trkpt>
      <trkpt lat="44.21382" lon="0.81935">
        <ele>79.903</ele>
        <time>2017-08-17T09:05:06Z</time>
      </trkpt>
      <trkpt lat="44.21352" lon="0.81892">
        <ele>80.012</ele>
        <time>2017-08-17T09:05:16Z</time>
      </trkpt>
      <trkpt lat="44.21319" lon="0.81849">
        <ele>80.402</ele>
        <time>2017-08-17T09:05:26Z</time>
      </trkpt>
      <trkpt lat="44.21284" lon="0.81806">
        <ele>80.672</ele>
        <time>2017-08-17T09:05:37Z</time>
      </trkpt>
      <trkpt lat="44.21256" lon="0.8177">
        <ele>81.552</ele>
        <time>2017-08-17T09:05:47Z</time>
      </trkpt>
      <trkpt lat="44.21235" lon="0.8174">
        <ele>81.202</ele>
        <time>2017-08-17T09:05:55Z</time>
      </trkpt>
      <trkpt lat="44.21212" lon="0.81709">
        <ele>80.722</ele>
        <time>2017-08-17T09:06:03Z</time>
      </trkpt>
      <trkpt lat="44.21184" lon="0.81669">
        <ele>79.94</ele>
        <time>2017-08-17T09:06:13Z</time>
      </trkpt>
      <trkpt lat="44.21161" lon="0.81635">
        <ele>79.761</ele>
        <time>2017-08-17T09:06:22Z</time>
      </trkpt>
      <trkpt lat="44.21158" lon="0.81631">
        <ele>79.801</ele>
        <time>2017-08-17T09:06:23Z</time>
      </trkpt>
      <trkpt lat="44.21138" lon="0.81592">
        <ele>79.061</ele>
        <time>2017-08-17T09:06:31Z</time>
      </trkpt>
      <trkpt lat="44.21121" lon="0.81543">
        <ele>79.071</ele>
        <time>2017-08-17T09:06:41Z</time>
      </trkpt>
      <trkpt lat="44.21112" lon="0.81489">
        <ele>80.401</ele>
        <time>2017-08-17T09:06:51Z</time>
      </trkpt>
      <trkpt lat="44.21105" lon="0.81435">
        <ele>80.391</ele>
        <time>2017-08-17T09:07:02Z</time>
      </trkpt>
      <trkpt lat="44.21094" lon="0.81385">
        <ele>79.801</ele>
        <time>2017-08-17T09:07:12Z</time>
      </trkpt>
      <trkpt lat="44.21083" lon="0.81329">
        <ele>78.659</ele>
        <time>2017-08-17T09:07:23Z</time>
      </trkpt>
      <trkpt lat="44.21082" lon="0.81302">
        <ele>78.979</ele>
        <time>2017-08-17T09:07:28Z</time>
      </trkpt>
      <trkpt lat="44.21077" lon="0.81267">
        <ele>78.939</ele>
        <time>2017-08-17T09:07:35Z</time>
      </trkpt>
      <trkpt lat="44.2107" lon="0.81233">
        <ele>78.63</ele>
        <time>2017-08-17T09:07:44Z</time>
      </trkpt>
      <trkpt lat="44.21071" lon="0.81232">
        <ele>78.599</ele>
        <time>2017-08-17T09:07:50Z</time>
      </trkpt>
      <trkpt lat="44.21073" lon="0.81236">
        <ele>83.021</ele>
        <time>2017-08-17T09:08:38Z</time>
      </trkpt>
      <trkpt lat="44.21072" lon="0.81237">
        <ele>79.89</ele>
        <time>2017-08-17T09:09:48Z</time>
      </trkpt>
      <trkpt lat="44.21065" lon="0.81219">
        <ele>80.339</ele>
        <time>2017-08-17T09:09:55Z</time>
      </trkpt>
      <trkpt lat="44.21048" lon="0.81185">
        <ele>79.889</ele>
        <time>2017-08-17T09:10:03Z</time>
      </trkpt>
      <trkpt lat="44.21025" lon="0.81141">
        <ele>78.779</ele>
        <time>2017-08-17T09:10:13Z</time>
      </trkpt>
      <trkpt lat="44.2101" lon="0.81103">
        <ele>78.079</ele>
        <time>2017-08-17T09:10:21Z</time>
      </trkpt>
      <trkpt lat="44.20993" lon="0.81061">
        <ele>76.988</ele>
        <time>2017-08-17T09:10:30Z</time>
      </trkpt>
      <trkpt lat="44.20975" lon="0.81014">
        <ele>76.079</ele>
        <time>2017-08-17T09:10:40Z</time>
      </trkpt>
      <trkpt lat="44.20954" lon="0.80971">
        <ele>75.719</ele>
        <time>2017-08-17T09:10:49Z</time>
      </trkpt>
      <trkpt lat="44.20927" lon="0.80938">
        <ele>76.169</ele>
        <time>2017-08-17T09:10:58Z</time>
      </trkpt>
      <trkpt lat="44.20895" lon="0.809">
        <ele>75.989</ele>
        <time>2017-08-17T09:11:09Z</time>
      </trkpt>
      <trkpt lat="44.20857" lon="0.80855">
        <ele>75.678</ele>
        <time>2017-08-17T09:11:22Z</time>
      </trkpt>
      <trkpt lat="44.20834" lon="0.8083">
        <ele>75.327</ele>
        <time>2017-08-17T09:11:30Z</time>
      </trkpt>
      <trkpt lat="44.20812" lon="0.80814">
        <ele>75.107</ele>
        <time>2017-08-17T09:11:37Z</time>
      </trkpt>
      <trkpt lat="44.20777" lon="0.80784">
        <ele>74.557</ele>
        <time>2017-08-17T09:11:48Z</time>
      </trkpt>
      <trkpt lat="44.2075" lon="0.80758">
        <ele>74.288</ele>
        <time>2017-08-17T09:11:57Z</time>
      </trkpt>
      <trkpt lat="44.20719" lon="0.80726">
        <ele>74.058</ele>
        <time>2017-08-17T09:12:09Z</time>
      </trkpt>
      <trkpt lat="44.20696" lon="0.80697">
        <ele>73.587</ele>
        <time>2017-08-17T09:12:19Z</time>
      </trkpt>
      <trkpt lat="44.20675" lon="0.80664">
        <ele>73.257</ele>
        <time>2017-08-17T09:12:29Z</time>
      </trkpt>
      <trkpt lat="44.20654" lon="0.80623">
        <ele>73.646</ele>
        <time>2017-08-17T09:12:40Z</time>
      </trkpt>
      <trkpt lat="44.20643" lon="0.80595">
        <ele>73.206</ele>
        <time>2017-08-17T09:12:46Z</time>
      </trkpt>
      <trkpt lat="44.2063" lon="0.80564">
        <ele>72.996</ele>
        <time>2017-08-17T09:12:52Z</time>
      </trkpt>
      <trkpt lat="44.2061" lon="0.80546">
        <ele>73.316</ele>
        <time>2017-08-17T09:12:58Z</time>
      </trkpt>
      <trkpt lat="44.20574" lon="0.80527">
        <ele>73.707</ele>
        <time>2017-08-17T09:13:08Z</time>
      </trkpt>
      <trkpt lat="44.20546" lon="0.80513">
        <ele>74.187</ele>
        <time>2017-08-17T09:13:17Z</time>
      </trkpt>
      <trkpt lat="44.20514" lon="0.80498">
        <ele>74.536</ele>
        <time>2017-08-17T09:13:28Z</time>
      </trkpt>
      <trkpt lat="44.20477" lon="0.80479">
        <ele>73.876</ele>
        <time>2017-08-17T09:13:41Z</time>
      </trkpt>
      <trkpt lat="44.20453" lon="0.80467">
        <ele>73.045</ele>
        <time>2017-08-17T09:13:49Z</time>
      </trkpt>
      <trkpt lat="44.20427" lon="0.80455">
        <ele>72.536</ele>
        <time>2017-08-17T09:13:59Z</time>
      </trkpt>
      <trkpt lat="44.20406" lon="0.80444">
        <ele>72.115</ele>
        <time>2017-08-17T09:14:07Z</time>
      </trkpt>
      <trkpt lat="44.20384" lon="0.80432">
        <ele>71.395</ele>
        <time>2017-08-17T09:14:16Z</time>
      </trkpt>
      <trkpt lat="44.20365" lon="0.80417">
        <ele>71.334</ele>
        <time>2017-08-17T09:14:25Z</time>
      </trkpt>
      <trkpt lat="44.20348" lon="0.80399">
        <ele>71.814</ele>
        <time>2017-08-17T09:14:34Z</time>
      </trkpt>
      <trkpt lat="44.20329" lon="0.80377">
        <ele>72.195</ele>
        <time>2017-08-17T09:14:43Z</time>
      </trkpt>
      <trkpt lat="44.20308" lon="0.80355">
        <ele>75.055</ele>
        <time>2017-08-17T09:14:52Z</time>
      </trkpt>
      <trkpt lat="44.20286" lon="0.80339">
        <ele>75.474</ele>
        <time>2017-08-17T09:15:00Z</time>
      </trkpt>
      <trkpt lat="44.20262" lon="0.8033">
        <ele>74.454</ele>
        <time>2017-08-17T09:15:06Z</time>
      </trkpt>
      <trkpt lat="44.20218" lon="0.80315">
        <ele>72.714</ele>
        <time>2017-08-17T09:15:15Z</time>
      </trkpt>
      <trkpt lat="44.20202" lon="0.8031">
        <ele>72.003</ele>
        <time>2017-08-17T09:15:18Z</time>
      </trkpt>
      <trkpt lat="44.20149" lon="0.80294">
        <ele>70.182</ele>
        <time>2017-08-17T09:15:27Z</time>
      </trkpt>
      <trkpt lat="44.20083" lon="0.80274">
        <ele>69.383</ele>
        <time>2017-08-17T09:15:38Z</time>
      </trkpt>
      <trkpt lat="44.20034" lon="0.80252">
        <ele>69.344</ele>
        <time>2017-08-17T09:15:47Z</time>
      </trkpt>
      <trkpt lat="44.20009" lon="0.80238">
        <ele>70.414</ele>
        <time>2017-08-17T09:15:53Z</time>
      </trkpt>
      <trkpt lat="44.19978" lon="0.80217">
        <ele>70.453</ele>
        <time>2017-08-17T09:16:03Z</time>
      </trkpt>
      <trkpt lat="44.19948" lon="0.80199">
        <ele>69.102</ele>
        <time>2017-08-17T09:16:10Z</time>
      </trkpt>
      <trkpt lat="44.19907" lon="0.80185">
        <ele>66.852</ele>
        <time>2017-08-17T09:16:17Z</time>
      </trkpt>
      <trkpt lat="44.1984" lon="0.80169">
        <ele>64.901</ele>
        <time>2017-08-17T09:16:27Z</time>
      </trkpt>
      <trkpt lat="44.1979" lon="0.8016">
        <ele>64.151</ele>
        <time>2017-08-17T09:16:35Z</time>
      </trkpt>
      <trkpt lat="44.19742" lon="0.80156">
        <ele>64.402</ele>
        <time>2017-08-17T09:16:44Z</time>
      </trkpt>
      <trkpt lat="44.197" lon="0.80158">
        <ele>64.142</ele>
        <time>2017-08-17T09:16:53Z</time>
      </trkpt>
      <trkpt lat="44.19662" lon="0.80165">
        <ele>64.152</ele>
        <time>2017-08-17T09:17:02Z</time>
      </trkpt>
      <trkpt lat="44.19645" lon="0.8018">
        <ele>64.212</ele>
        <time>2017-08-17T09:17:07Z</time>
      </trkpt>
      <trkpt lat="44.19639" lon="0.80196">
        <ele>64.202</ele>
        <time>2017-08-17T09:17:11Z</time>
      </trkpt>
      <trkpt lat="44.19631" lon="0.80202">
        <ele>64.142</ele>
        <time>2017-08-17T09:17:15Z</time>
      </trkpt>
      <trkpt lat="44.19603" lon="0.8019">
        <ele>63.81</ele>
        <time>2017-08-17T09:17:25Z</time>
      </trkpt>
      <trkpt lat="44.1959" lon="0.80188">
        <ele>64.011</ele>
        <time>2017-08-17T09:17:31Z</time>
      </trkpt>
      <trkpt lat="44.19589" lon="0.80188">
        <ele>63.931</ele>
        <time>2017-08-17T09:17:37Z</time>
      </trkpt>
      <trkpt lat="44.19584" lon="0.80189">
        <ele>62.671</ele>
        <time>2017-08-17T09:17:54Z</time>
      </trkpt>
      <trkpt lat="44.19566" lon="0.8019">
        <ele>62.631</ele>
        <time>2017-08-17T09:18:01Z</time>
      </trkpt>
      <trkpt lat="44.19533" lon="0.80191">
        <ele>62.561</ele>
        <time>2017-08-17T09:18:11Z</time>
      </trkpt>
      <trkpt lat="44.19519" lon="0.80192">
        <ele>62.821</ele>
        <time>2017-08-17T09:18:16Z</time>
      </trkpt>
      <trkpt lat="44.19494" lon="0.80192">
        <ele>62.81</ele>
        <time>2017-08-17T09:18:24Z</time>
      </trkpt>
      <trkpt lat="44.19454" lon="0.80194">
        <ele>62.81</ele>
        <time>2017-08-17T09:18:36Z</time>
      </trkpt>
      <trkpt lat="44.19421" lon="0.80195">
        <ele>62.68</ele>
        <time>2017-08-17T09:18:45Z</time>
      </trkpt>
      <trkpt lat="44.19392" lon="0.80197">
        <ele>62.79</ele>
        <time>2017-08-17T09:18:53Z</time>
      </trkpt>
      <trkpt lat="44.19362" lon="0.80197">
        <ele>62.86</ele>
        <time>2017-08-17T09:19:01Z</time>
      </trkpt>
      <trkpt lat="44.19328" lon="0.80199">
        <ele>62.68</ele>
        <time>2017-08-17T09:19:11Z</time>
      </trkpt>
      <trkpt lat="44.19292" lon="0.802">
        <ele>63.491</ele>
        <time>2017-08-17T09:19:22Z</time>
      </trkpt>
      <trkpt lat="44.19263" lon="0.80201">
        <ele>64.25</ele>
        <time>2017-08-17T09:19:32Z</time>
      </trkpt>
      <trkpt lat="44.19237" lon="0.80202">
        <ele>65.05</ele>
        <time>2017-08-17T09:19:42Z</time>
      </trkpt>
      <trkpt lat="44.19214" lon="0.80203">
        <ele>65.889</ele>
        <time>2017-08-17T09:19:51Z</time>
      </trkpt>
      <trkpt lat="44.19189" lon="0.80205">
        <ele>65.589</ele>
        <time>2017-08-17T09:19:58Z</time>
      </trkpt>
      <trkpt lat="44.19154" lon="0.80206">
        <ele>65.589</ele>
        <time>2017-08-17T09:20:07Z</time>
      </trkpt>
      <trkpt lat="44.1913" lon="0.80207">
        <ele>66.2</ele>
        <time>2017-08-17T09:20:15Z</time>
      </trkpt>
      <trkpt lat="44.19102" lon="0.80205">
        <ele>66.749</ele>
        <time>2017-08-17T09:20:26Z</time>
      </trkpt>
      <trkpt lat="44.19079" lon="0.80195">
        <ele>67.429</ele>
        <time>2017-08-17T09:20:36Z</time>
      </trkpt>
      <trkpt lat="44.19067" lon="0.80187">
        <ele>68.449</ele>
        <time>2017-08-17T09:20:44Z</time>
      </trkpt>
      <trkpt lat="44.19055" lon="0.80172">
        <ele>68.889</ele>
        <time>2017-08-17T09:20:53Z</time>
      </trkpt>
      <trkpt lat="44.19042" lon="0.80151">
        <ele>69.079</ele>
        <time>2017-08-17T09:21:03Z</time>
      </trkpt>
      <trkpt lat="44.19033" lon="0.80125">
        <ele>70.069</ele>
        <time>2017-08-17T09:21:14Z</time>
      </trkpt>
      <trkpt lat="44.19028" lon="0.80103">
        <ele>70.478</ele>
        <time>2017-08-17T09:21:24Z</time>
      </trkpt>
      <trkpt lat="44.19025" lon="0.80089">
        <ele>71.649</ele>
        <time>2017-08-17T09:21:31Z</time>
      </trkpt>
      <trkpt lat="44.19021" lon="0.80072">
        <ele>73.179</ele>
        <time>2017-08-17T09:21:40Z</time>
      </trkpt>
      <trkpt lat="44.19016" lon="0.80053">
        <ele>73.548</ele>
        <time>2017-08-17T09:21:50Z</time>
      </trkpt>
      <trkpt lat="44.19012" lon="0.80034">
        <ele>74.058</ele>
        <time>2017-08-17T09:21:59Z</time>
      </trkpt>
      <trkpt lat="44.19006" lon="0.8001">
        <ele>74.928</ele>
        <time>2017-08-17T09:22:09Z</time>
      </trkpt>
      <trkpt lat="44.19001" lon="0.7999">
        <ele>75.878</ele>
        <time>2017-08-17T09:22:18Z</time>
      </trkpt>
      <trkpt lat="44.18995" lon="0.79961">
        <ele>76.98</ele>
        <time>2017-08-17T09:22:31Z</time>
      </trkpt>
      <trkpt lat="44.1899" lon="0.79937">
        <ele>78.268</ele>
        <time>2017-08-17T09:22:42Z</time>
      </trkpt>
      <trkpt lat="44.18989" lon="0.79936">
        <ele>78.388</ele>
        <time>2017-08-17T09:22:43Z</time>
      </trkpt>
      <trkpt lat="44.18985" lon="0.79923">
        <ele>78.498</ele>
        <time>2017-08-17T09:22:50Z</time>
      </trkpt>
      <trkpt lat="44.18981" lon="0.79919">
        <ele>78.647</ele>
        <time>2017-08-17T09:22:58Z</time>
      </trkpt>
      <trkpt lat="44.18981" lon="0.79919">
        <ele>76.447</ele>
        <time>2017-08-17T09:24:59Z</time>
      </trkpt>
      <trkpt lat="44.18976" lon="0.79915">
        <ele>76.687</ele>
        <time>2017-08-17T09:25:05Z</time>
      </trkpt>
      <trkpt lat="44.18973" lon="0.79909">
        <ele>79.529</ele>
        <time>2017-08-17T09:25:13Z</time>
      </trkpt>
      <trkpt lat="44.18968" lon="0.79902">
        <ele>81.858</ele>
        <time>2017-08-17T09:25:20Z</time>
      </trkpt>
      <trkpt lat="44.18966" lon="0.79896">
        <ele>83.258</ele>
        <time>2017-08-17T09:25:26Z</time>
      </trkpt>
      <trkpt lat="44.18962" lon="0.79889">
        <ele>85.439</ele>
        <time>2017-08-17T09:25:33Z</time>
      </trkpt>
      <trkpt lat="44.18955" lon="0.79879">
        <ele>87.988</ele>
        <time>2017-08-17T09:25:42Z</time>
      </trkpt>
      <trkpt lat="44.18951" lon="0.79873">
        <ele>89.399</ele>
        <time>2017-08-17T09:25:48Z</time>
      </trkpt>
      <trkpt lat="44.18948" lon="0.7987">
        <ele>91.319</ele>
        <time>2017-08-17T09:25:53Z</time>
      </trkpt>
      <trkpt lat="44.18943" lon="0.79862">
        <ele>92.088</ele>
        <time>2017-08-17T09:26:00Z</time>
      </trkpt>
      <trkpt lat="44.18942" lon="0.79861">
        <ele>91.898</ele>
        <time>2017-08-17T09:26:01Z</time>
      </trkpt>
      <trkpt lat="44.18937" lon="0.79848">
        <ele>90.757</ele>
        <time>2017-08-17T09:26:11Z</time>
      </trkpt>
      <trkpt lat="44.18933" lon="0.79835">
        <ele>91.588</ele>
        <time>2017-08-17T09:26:21Z</time>
      </trkpt>
      <trkpt lat="44.1893" lon="0.79825">
        <ele>92.877</ele>
        <time>2017-08-17T09:26:29Z</time>
      </trkpt>
      <trkpt lat="44.18928" lon="0.79817">
        <ele>93.808</ele>
        <time>2017-08-17T09:26:36Z</time>
      </trkpt>
      <trkpt lat="44.18926" lon="0.79812">
        <ele>93.967</ele>
        <time>2017-08-17T09:26:43Z</time>
      </trkpt>
      <trkpt lat="44.18925" lon="0.79807">
        <ele>95.108</ele>
        <time>2017-08-17T09:26:48Z</time>
      </trkpt>
      <trkpt lat="44.18923" lon="0.798">
        <ele>94.897</ele>
        <time>2017-08-17T09:26:55Z</time>
      </trkpt>
      <trkpt lat="44.18921" lon="0.79793">
        <ele>95.848</ele>
        <time>2017-08-17T09:27:02Z</time>
      </trkpt>
      <trkpt lat="44.18917" lon="0.79783">
        <ele>99.448</ele>
        <time>2017-08-17T09:27:12Z</time>
      </trkpt>
      <trkpt lat="44.18914" lon="0.79775">
        <ele>101.217</ele>
        <time>2017-08-17T09:27:20Z</time>
      </trkpt>
      <trkpt lat="44.18909" lon="0.79768">
        <ele>104.907</ele>
        <time>2017-08-17T09:27:28Z</time>
      </trkpt>
      <trkpt lat="44.18909" lon="0.79767">
        <ele>105.107</ele>
        <time>2017-08-17T09:27:29Z</time>
      </trkpt>
      <trkpt lat="44.18902" lon="0.7976">
        <ele>108.847</ele>
        <time>2017-08-17T09:27:39Z</time>
      </trkpt>
      <trkpt lat="44.18898" lon="0.79757">
        <ele>109.417</ele>
        <time>2017-08-17T09:27:44Z</time>
      </trkpt>
      <trkpt lat="44.18891" lon="0.79751">
        <ele>111.088</ele>
        <time>2017-08-17T09:27:54Z</time>
      </trkpt>
      <trkpt lat="44.18883" lon="0.79743">
        <ele>111.447</ele>
        <time>2017-08-17T09:28:05Z</time>
      </trkpt>
      <trkpt lat="44.18879" lon="0.79738">
        <ele>113.277</ele>
        <time>2017-08-17T09:28:11Z</time>
      </trkpt>
      <trkpt lat="44.18872" lon="0.7973">
        <ele>115.638</ele>
        <time>2017-08-17T09:28:21Z</time>
      </trkpt>
      <trkpt lat="44.18864" lon="0.79722">
        <ele>118.517</ele>
        <time>2017-08-17T09:28:32Z</time>
      </trkpt>
      <trkpt lat="44.18859" lon="0.79714">
        <ele>117.737</ele>
        <time>2017-08-17T09:28:41Z</time>
      </trkpt>
      <trkpt lat="44.18852" lon="0.79706">
        <ele>117.777</ele>
        <time>2017-08-17T09:28:50Z</time>
      </trkpt>
      <trkpt lat="44.18844" lon="0.79699">
        <ele>119.187</ele>
        <time>2017-08-17T09:29:00Z</time>
      </trkpt>
      <trkpt lat="44.18836" lon="0.79693">
        <ele>121.278</ele>
        <time>2017-08-17T09:29:10Z</time>
      </trkpt>
      <trkpt lat="44.18828" lon="0.79686">
        <ele>123.388</ele>
        <time>2017-08-17T09:29:19Z</time>
      </trkpt>
      <trkpt lat="44.18821" lon="0.79679">
        <ele>125.237</ele>
        <time>2017-08-17T09:29:28Z</time>
      </trkpt>
      <trkpt lat="44.18814" lon="0.79672">
        <ele>128.128</ele>
        <time>2017-08-17T09:29:37Z</time>
      </trkpt>
      <trkpt lat="44.1881" lon="0.79671">
        <ele>129.917</ele>
        <time>2017-08-17T09:29:42Z</time>
      </trkpt>
      <trkpt lat="44.18809" lon="0.79675">
        <ele>130.497</ele>
        <time>2017-08-17T09:29:46Z</time>
      </trkpt>
      <trkpt lat="44.18803" lon="0.79683">
        <ele>131.246</ele>
        <time>2017-08-17T09:29:55Z</time>
      </trkpt>
      <trkpt lat="44.18803" lon="0.79696">
        <ele>133.837</ele>
        <time>2017-08-17T09:30:05Z</time>
      </trkpt>
      <trkpt lat="44.18804" lon="0.79708">
        <ele>134.746</ele>
        <time>2017-08-17T09:30:14Z</time>
      </trkpt>
      <trkpt lat="44.18804" lon="0.79714">
        <ele>135.567</ele>
        <time>2017-08-17T09:30:18Z</time>
      </trkpt>
      <trkpt lat="44.18805" lon="0.79722">
        <ele>137.178</ele>
        <time>2017-08-17T09:30:24Z</time>
      </trkpt>
      <trkpt lat="44.18804" lon="0.79731">
        <ele>140.098</ele>
        <time>2017-08-17T09:30:32Z</time>
      </trkpt>
      <trkpt lat="44.18803" lon="0.79744">
        <ele>142.648</ele>
        <time>2017-08-17T09:30:43Z</time>
      </trkpt>
      <trkpt lat="44.18804" lon="0.79757">
        <ele>143.867</ele>
        <time>2017-08-17T09:30:53Z</time>
      </trkpt>
      <trkpt lat="44.18805" lon="0.79768">
        <ele>144.097</ele>
        <time>2017-08-17T09:31:00Z</time>
      </trkpt>
      <trkpt lat="44.18808" lon="0.79781">
        <ele>144.436</ele>
        <time>2017-08-17T09:31:09Z</time>
      </trkpt>
      <trkpt lat="44.18809" lon="0.79786">
        <ele>144.166</ele>
        <time>2017-08-17T09:31:12Z</time>
      </trkpt>
      <trkpt lat="44.18815" lon="0.79788">
        <ele>143.856</ele>
        <time>2017-08-17T09:31:17Z</time>
      </trkpt>
      <trkpt lat="44.18814" lon="0.79782">
        <ele>143.486</ele>
        <time>2017-08-17T09:31:22Z</time>
      </trkpt>
      <trkpt lat="44.18813" lon="0.79781">
        <ele>142.856</ele>
        <time>2017-08-17T09:31:28Z</time>
      </trkpt>
      <trkpt lat="44.1881" lon="0.79775">
        <ele>139.594</ele>
        <time>2017-08-17T09:31:40Z</time>
      </trkpt>
      <trkpt lat="44.18809" lon="0.79774">
        <ele>140.916</ele>
        <time>2017-08-17T09:31:47Z</time>
      </trkpt>
      <trkpt lat="44.18809" lon="0.79774">
        <ele>142.106</ele>
        <time>2017-08-17T09:32:00Z</time>
      </trkpt>
      <trkpt lat="44.18808" lon="0.79776">
        <ele>142.497</ele>
        <time>2017-08-17T09:32:02Z</time>
      </trkpt>
      <trkpt lat="44.18812" lon="0.79784">
        <ele>141.785</ele>
        <time>2017-08-17T09:32:09Z</time>
      </trkpt>
      <trkpt lat="44.18814" lon="0.79783">
        <ele>142.376</ele>
        <time>2017-08-17T09:32:16Z</time>
      </trkpt>
      <trkpt lat="44.18813" lon="0.79784">
        <ele>141.116</ele>
        <time>2017-08-17T09:43:09Z</time>
      </trkpt>
      <trkpt lat="44.1881" lon="0.79781">
        <ele>141.016</ele>
        <time>2017-08-17T09:43:13Z</time>
      </trkpt>
      <trkpt lat="44.18799" lon="0.79778">
        <ele>142.136</ele>
        <time>2017-08-17T09:43:22Z</time>
      </trkpt>
      <trkpt lat="44.18795" lon="0.79778">
        <ele>142.777</ele>
        <time>2017-08-17T09:43:26Z</time>
      </trkpt>
      <trkpt lat="44.18784" lon="0.79778">
        <ele>145.038</ele>
        <time>2017-08-17T09:43:36Z</time>
      </trkpt>
      <trkpt lat="44.18774" lon="0.7978">
        <ele>146.807</ele>
        <time>2017-08-17T09:43:46Z</time>
      </trkpt>
      <trkpt lat="44.1876" lon="0.79781">
        <ele>148.307</ele>
        <time>2017-08-17T09:43:58Z</time>
      </trkpt>
      <trkpt lat="44.18749" lon="0.79783">
        <ele>152.118</ele>
        <time>2017-08-17T09:44:09Z</time>
      </trkpt>
      <trkpt lat="44.18746" lon="0.79784">
        <ele>153.818</ele>
        <time>2017-08-17T09:44:13Z</time>
      </trkpt>
      <trkpt lat="44.18736" lon="0.79783">
        <ele>154.656</ele>
        <time>2017-08-17T09:44:22Z</time>
      </trkpt>
      <trkpt lat="44.1873" lon="0.79785">
        <ele>155.557</ele>
        <time>2017-08-17T09:44:28Z</time>
      </trkpt>
      <trkpt lat="44.18716" lon="0.79785">
        <ele>156.357</ele>
        <time>2017-08-17T09:44:38Z</time>
      </trkpt>
      <trkpt lat="44.18709" lon="0.79786">
        <ele>157.997</ele>
        <time>2017-08-17T09:44:45Z</time>
      </trkpt>
      <trkpt lat="44.18707" lon="0.79793">
        <ele>158.536</ele>
        <time>2017-08-17T09:44:51Z</time>
      </trkpt>
      <trkpt lat="44.18708" lon="0.79794">
        <ele>158.606</ele>
        <time>2017-08-17T09:44:52Z</time>
      </trkpt>
      <trkpt lat="44.18709" lon="0.79798">
        <ele>160.557</ele>
        <time>2017-08-17T09:44:58Z</time>
      </trkpt>
      <trkpt lat="44.18707" lon="0.79801">
        <ele>163.117</ele>
        <time>2017-08-17T09:45:05Z</time>
      </trkpt>
      <trkpt lat="44.18706" lon="0.79802">
        <ele>164.267</ele>
        <time>2017-08-17T09:45:08Z</time>
      </trkpt>
      <trkpt lat="44.18706" lon="0.79819">
        <ele>164.217</ele>
        <time>2017-08-17T09:45:15Z</time>
      </trkpt>
      <trkpt lat="44.1871" lon="0.79851">
        <ele>162.606</ele>
        <time>2017-08-17T09:45:24Z</time>
      </trkpt>
      <trkpt lat="44.18713" lon="0.79888">
        <ele>160.745</ele>
        <time>2017-08-17T09:45:34Z</time>
      </trkpt>
      <trkpt lat="44.18716" lon="0.79922">
        <ele>161.116</ele>
        <time>2017-08-17T09:45:43Z</time>
      </trkpt>
      <trkpt lat="44.18718" lon="0.79952">
        <ele>161.106</ele>
        <time>2017-08-17T09:45:50Z</time>
      </trkpt>
      <trkpt lat="44.1872" lon="0.79981">
        <ele>160.576</ele>
        <time>2017-08-17T09:45:58Z</time>
      </trkpt>
      <trkpt lat="44.18724" lon="0.80004">
        <ele>159.106</ele>
        <time>2017-08-17T09:46:08Z</time>
      </trkpt>
      <trkpt lat="44.18725" lon="0.80014">
        <ele>159.608</ele>
        <time>2017-08-17T09:46:14Z</time>
      </trkpt>
      <trkpt lat="44.18723" lon="0.80017">
        <ele>160.327</ele>
        <time>2017-08-17T09:46:20Z</time>
      </trkpt>
      <trkpt lat="44.18723" lon="0.80018">
        <ele>160.527</ele>
        <time>2017-08-17T09:46:21Z</time>
      </trkpt>
      <trkpt lat="44.18726" lon="0.80018">
        <ele>160.776</ele>
        <time>2017-08-17T09:46:26Z</time>
      </trkpt>
      <trkpt lat="44.18723" lon="0.80014">
        <ele>161.397</ele>
        <time>2017-08-17T09:46:31Z</time>
      </trkpt>
      <trkpt lat="44.18721" lon="0.80014">
        <ele>161.426</ele>
        <time>2017-08-17T09:46:38Z</time>
      </trkpt>
      <trkpt lat="44.18716" lon="0.80015">
        <ele>164.027</ele>
        <time>2017-08-17T09:47:06Z</time>
      </trkpt>
      <trkpt lat="44.18721" lon="0.80011">
        <ele>163.407</ele>
        <time>2017-08-17T09:47:10Z</time>
      </trkpt>
      <trkpt lat="44.18722" lon="0.80012">
        <ele>163.296</ele>
        <time>2017-08-17T09:47:11Z</time>
      </trkpt>
      <trkpt lat="44.1874" lon="0.80011">
        <ele>161.396</ele>
        <time>2017-08-17T09:47:18Z</time>
      </trkpt>
      <trkpt lat="44.18754" lon="0.80011">
        <ele>160.836</ele>
        <time>2017-08-17T09:47:24Z</time>
      </trkpt>
      <trkpt lat="44.18766" lon="0.80014">
        <ele>160.856</ele>
        <time>2017-08-17T09:47:30Z</time>
      </trkpt>
      <trkpt lat="44.18775" lon="0.80018">
        <ele>161.517</ele>
        <time>2017-08-17T09:47:36Z</time>
      </trkpt>
      <trkpt lat="44.1878" lon="0.80015">
        <ele>149.547</ele>
        <time>2017-08-17T09:58:48Z</time>
      </trkpt>
      <trkpt lat="44.18777" lon="0.80006">
        <ele>151.099</ele>
        <time>2017-08-17T09:58:55Z</time>
      </trkpt>
      <trkpt lat="44.18774" lon="0.80006">
        <ele>151.638</ele>
        <time>2017-08-17T09:58:57Z</time>
      </trkpt>
      <trkpt lat="44.18762" lon="0.80007">
        <ele>153.9</ele>
        <time>2017-08-17T09:59:07Z</time>
      </trkpt>
      <trkpt lat="44.18757" lon="0.80007">
        <ele>154.558</ele>
        <time>2017-08-17T09:59:10Z</time>
      </trkpt>
      <trkpt lat="44.18751" lon="0.80012">
        <ele>155.81</ele>
        <time>2017-08-17T09:59:15Z</time>
      </trkpt>
      <trkpt lat="44.18744" lon="0.80011">
        <ele>156.339</ele>
        <time>2017-08-17T09:59:19Z</time>
      </trkpt>
      <trkpt lat="44.1874" lon="0.80004">
        <ele>156.274</ele>
        <time>2017-08-17T09:59:24Z</time>
      </trkpt>
      <trkpt lat="44.18734" lon="0.80005">
        <ele>156.395</ele>
        <time>2017-08-17T09:59:28Z</time>
      </trkpt>
      <trkpt lat="44.1873" lon="0.80006">
        <ele>156.346</ele>
        <time>2017-08-17T09:59:30Z</time>
      </trkpt>
      <trkpt lat="44.18727" lon="0.80007">
        <ele>156.226</ele>
        <time>2017-08-17T09:59:32Z</time>
      </trkpt>
      <trkpt lat="44.18725" lon="0.80001">
        <ele>156.258</ele>
        <time>2017-08-17T09:59:36Z</time>
      </trkpt>
      <trkpt lat="44.18724" lon="0.79991">
        <ele>156.176</ele>
        <time>2017-08-17T09:59:42Z</time>
      </trkpt>
      <trkpt lat="44.18722" lon="0.79974">
        <ele>156.836</ele>
        <time>2017-08-17T09:59:52Z</time>
      </trkpt>
      <trkpt lat="44.18719" lon="0.79956">
        <ele>158.114</ele>
        <time>2017-08-17T10:00:00Z</time>
      </trkpt>
      <trkpt lat="44.18719" lon="0.79941">
        <ele>157.58</ele>
        <time>2017-08-17T10:00:06Z</time>
      </trkpt>
      <trkpt lat="44.18716" lon="0.79924">
        <ele>158.957</ele>
        <time>2017-08-17T10:00:13Z</time>
      </trkpt>
      <trkpt lat="44.18715" lon="0.79897">
        <ele>157.944</ele>
        <time>2017-08-17T10:00:23Z</time>
      </trkpt>
      <trkpt lat="44.18714" lon="0.79878">
        <ele>156.028</ele>
        <time>2017-08-17T10:00:30Z</time>
      </trkpt>
      <trkpt lat="44.18713" lon="0.7986">
        <ele>155.047</ele>
        <time>2017-08-17T10:00:36Z</time>
      </trkpt>
      <trkpt lat="44.18711" lon="0.79832">
        <ele>155.387</ele>
        <time>2017-08-17T10:00:45Z</time>
      </trkpt>
      <trkpt lat="44.18709" lon="0.79808">
        <ele>158.083</ele>
        <time>2017-08-17T10:00:53Z</time>
      </trkpt>
      <trkpt lat="44.18709" lon="0.79789">
        <ele>158.132</ele>
        <time>2017-08-17T10:01:00Z</time>
      </trkpt>
      <trkpt lat="44.18699" lon="0.79786">
        <ele>157.374</ele>
        <time>2017-08-17T10:01:05Z</time>
      </trkpt>
      <trkpt lat="44.18687" lon="0.79786">
        <ele>157.932</ele>
        <time>2017-08-17T10:01:09Z</time>
      </trkpt>
      <trkpt lat="44.18684" lon="0.79775">
        <ele>158.594</ele>
        <time>2017-08-17T10:01:13Z</time>
      </trkpt>
      <trkpt lat="44.18685" lon="0.79765">
        <ele>158.002</ele>
        <time>2017-08-17T10:01:17Z</time>
      </trkpt>
      <trkpt lat="44.18685" lon="0.79736">
        <ele>159.965</ele>
        <time>2017-08-17T10:01:27Z</time>
      </trkpt>
      <trkpt lat="44.1868" lon="0.79712">
        <ele>162.169</ele>
        <time>2017-08-17T10:01:34Z</time>
      </trkpt>
      <trkpt lat="44.1868" lon="0.79691">
        <ele>160.984</ele>
        <time>2017-08-17T10:01:42Z</time>
      </trkpt>
      <trkpt lat="44.18678" lon="0.79673">
        <ele>160.445</ele>
        <time>2017-08-17T10:01:48Z</time>
      </trkpt>
      <trkpt lat="44.18675" lon="0.79651">
        <ele>160.56</ele>
        <time>2017-08-17T10:01:55Z</time>
      </trkpt>
      <trkpt lat="44.18672" lon="0.79626">
        <ele>161.855</ele>
        <time>2017-08-17T10:02:03Z</time>
      </trkpt>
      <trkpt lat="44.18667" lon="0.79605">
        <ele>161.468</ele>
        <time>2017-08-17T10:02:10Z</time>
      </trkpt>
      <trkpt lat="44.18666" lon="0.79585">
        <ele>160.871</ele>
        <time>2017-08-17T10:02:17Z</time>
      </trkpt>
      <trkpt lat="44.18666" lon="0.7958">
        <ele>160.623</ele>
        <time>2017-08-17T10:02:19Z</time>
      </trkpt>
      <trkpt lat="44.18671" lon="0.79576">
        <ele>162.238</ele>
        <time>2017-08-17T10:02:23Z</time>
      </trkpt>
      <trkpt lat="44.18686" lon="0.79575">
        <ele>164.295</ele>
        <time>2017-08-17T10:02:31Z</time>
      </trkpt>
      <trkpt lat="44.18696" lon="0.79577">
        <ele>162.497</ele>
        <time>2017-08-17T10:02:39Z</time>
      </trkpt>
      <trkpt lat="44.18696" lon="0.79577">
        <ele>162.247</ele>
        <time>2017-08-17T10:02:40Z</time>
      </trkpt>
      <trkpt lat="44.18698" lon="0.79589">
        <ele>161.375</ele>
        <time>2017-08-17T10:02:46Z</time>
      </trkpt>
      <trkpt lat="44.18698" lon="0.79601">
        <ele>160.809</ele>
        <time>2017-08-17T10:02:50Z</time>
      </trkpt>
      <trkpt lat="44.18705" lon="0.79614">
        <ele>160.294</ele>
        <time>2017-08-17T10:02:55Z</time>
      </trkpt>
      <trkpt lat="44.18708" lon="0.79615">
        <ele>160.395</ele>
        <time>2017-08-17T10:02:56Z</time>
      </trkpt>
      <trkpt lat="44.18723" lon="0.79617">
        <ele>159.503</ele>
        <time>2017-08-17T10:03:03Z</time>
      </trkpt>
      <trkpt lat="44.18725" lon="0.79619">
        <ele>158.903</ele>
        <time>2017-08-17T10:03:04Z</time>
      </trkpt>
      <trkpt lat="44.1873" lon="0.79643">
        <ele>157.226</ele>
        <time>2017-08-17T10:03:10Z</time>
      </trkpt>
      <trkpt lat="44.18728" lon="0.79667">
        <ele>157.268</ele>
        <time>2017-08-17T10:03:16Z</time>
      </trkpt>
      <trkpt lat="44.18721" lon="0.79672">
        <ele>157.085</ele>
        <time>2017-08-17T10:03:20Z</time>
      </trkpt>
      <trkpt lat="44.18707" lon="0.79671">
        <ele>157.988</ele>
        <time>2017-08-17T10:03:28Z</time>
      </trkpt>
      <trkpt lat="44.18707" lon="0.79659">
        <ele>159.811</ele>
        <time>2017-08-17T10:03:33Z</time>
      </trkpt>
      <trkpt lat="44.18708" lon="0.79635">
        <ele>161.005</ele>
        <time>2017-08-17T10:03:42Z</time>
      </trkpt>
      <trkpt lat="44.18709" lon="0.79619">
        <ele>161.206</ele>
        <time>2017-08-17T10:03:48Z</time>
      </trkpt>
      <trkpt lat="44.1871" lon="0.79614">
        <ele>160.834</ele>
        <time>2017-08-17T10:03:52Z</time>
      </trkpt>
      <trkpt lat="44.18706" lon="0.79616">
        <ele>160.505</ele>
        <time>2017-08-17T10:03:56Z</time>
      </trkpt>
      <trkpt lat="44.18706" lon="0.79619">
        <ele>160.088</ele>
        <time>2017-08-17T10:04:01Z</time>
      </trkpt>
      <trkpt lat="44.18707" lon="0.79618">
        <ele>160.738</ele>
        <time>2017-08-17T10:04:08Z</time>
      </trkpt>
      <trkpt lat="44.18705" lon="0.79619">
        <ele>161.699</ele>
        <time>2017-08-17T10:05:21Z</time>
      </trkpt>
      <trkpt lat="44.18705" lon="0.79614">
        <ele>161.975</ele>
        <time>2017-08-17T10:05:25Z</time>
      </trkpt>
      <trkpt lat="44.18702" lon="0.79608">
        <ele>161.713</ele>
        <time>2017-08-17T10:05:29Z</time>
      </trkpt>
      <trkpt lat="44.18701" lon="0.79583">
        <ele>161.421</ele>
        <time>2017-08-17T10:05:38Z</time>
      </trkpt>
      <trkpt lat="44.18701" lon="0.79575">
        <ele>161.761</ele>
        <time>2017-08-17T10:05:41Z</time>
      </trkpt>
      <trkpt lat="44.18692" lon="0.79564">
        <ele>162.561</ele>
        <time>2017-08-17T10:05:47Z</time>
      </trkpt>
      <trkpt lat="44.18686" lon="0.79565">
        <ele>165.828</ele>
        <time>2017-08-17T10:05:54Z</time>
      </trkpt>
      <trkpt lat="44.1869" lon="0.79567">
        <ele>170.56</ele>
        <time>2017-08-17T10:06:01Z</time>
      </trkpt>
      <trkpt lat="44.18705" lon="0.79568">
        <ele>179.873</ele>
        <time>2017-08-17T10:06:53Z</time>
      </trkpt>
      <trkpt lat="44.18704" lon="0.7957">
        <ele>178.391</ele>
        <time>2017-08-17T10:06:56Z</time>
      </trkpt>
      <trkpt lat="44.18712" lon="0.79567">
        <ele>176.06</ele>
        <time>2017-08-17T10:07:02Z</time>
      </trkpt>
      <trkpt lat="44.18708" lon="0.79564">
        <ele>171.713</ele>
        <time>2017-08-17T10:07:06Z</time>
      </trkpt>
      <trkpt lat="44.18711" lon="0.79554">
        <ele>167.76</ele>
        <time>2017-08-17T10:07:11Z</time>
      </trkpt>
      <trkpt lat="44.18714" lon="0.7955">
        <ele>166.081</ele>
        <time>2017-08-17T10:07:17Z</time>
      </trkpt>
      <trkpt lat="44.18709" lon="0.79541">
        <ele>167.68</ele>
        <time>2017-08-17T10:07:50Z</time>
      </trkpt>
      <trkpt lat="44.18705" lon="0.7955">
        <ele>166.252</ele>
        <time>2017-08-17T10:07:55Z</time>
      </trkpt>
      <trkpt lat="44.18704" lon="0.79602">
        <ele>165.2</ele>
        <time>2017-08-17T10:08:07Z</time>
      </trkpt>
      <trkpt lat="44.18705" lon="0.79616">
        <ele>163.688</ele>
        <time>2017-08-17T10:08:12Z</time>
      </trkpt>
      <trkpt lat="44.18708" lon="0.79625">
        <ele>163.698</ele>
        <time>2017-08-17T10:08:40Z</time>
      </trkpt>
      <trkpt lat="44.18709" lon="0.79637">
        <ele>163.679</ele>
        <time>2017-08-17T10:08:47Z</time>
      </trkpt>
      <trkpt lat="44.18708" lon="0.79639">
        <ele>163.545</ele>
        <time>2017-08-17T10:08:53Z</time>
      </trkpt>
      <trkpt lat="44.18715" lon="0.79641">
        <ele>166.086</ele>
        <time>2017-08-17T10:14:07Z</time>
      </trkpt>
      <trkpt lat="44.18711" lon="0.79638">
        <ele>167.566</ele>
        <time>2017-08-17T10:15:30Z</time>
      </trkpt>
      <trkpt lat="44.18707" lon="0.79632">
        <ele>167.636</ele>
        <time>2017-08-17T10:15:35Z</time>
      </trkpt>
      <trkpt lat="44.18707" lon="0.79627">
        <ele>167.906</ele>
        <time>2017-08-17T10:15:37Z</time>
      </trkpt>
      <trkpt lat="44.18706" lon="0.79616">
        <ele>168.025</ele>
        <time>2017-08-17T10:15:42Z</time>
      </trkpt>
      <trkpt lat="44.18704" lon="0.79609">
        <ele>169.056</ele>
        <time>2017-08-17T10:15:48Z</time>
      </trkpt>
      <trkpt lat="44.187" lon="0.79606">
        <ele>170.047</ele>
        <time>2017-08-17T10:15:52Z</time>
      </trkpt>
      <trkpt lat="44.18688" lon="0.79609">
        <ele>171.306</ele>
        <time>2017-08-17T10:15:59Z</time>
      </trkpt>
      <trkpt lat="44.18675" lon="0.79611">
        <ele>170.595</ele>
        <time>2017-08-17T10:16:04Z</time>
      </trkpt>
      <trkpt lat="44.18663" lon="0.79612">
        <ele>166.953</ele>
        <time>2017-08-17T10:16:10Z</time>
      </trkpt>
      <trkpt lat="44.18648" lon="0.79615">
        <ele>164.633</ele>
        <time>2017-08-17T10:16:14Z</time>
      </trkpt>
      <trkpt lat="44.18623" lon="0.7962">
        <ele>161.431</ele>
        <time>2017-08-17T10:16:19Z</time>
      </trkpt>
      <trkpt lat="44.18604" lon="0.79621">
        <ele>159.022</ele>
        <time>2017-08-17T10:16:24Z</time>
      </trkpt>
      <trkpt lat="44.18578" lon="0.79622">
        <ele>155.402</ele>
        <time>2017-08-17T10:16:31Z</time>
      </trkpt>
      <trkpt lat="44.1857" lon="0.79626">
        <ele>153.805</ele>
        <time>2017-08-17T10:16:36Z</time>
      </trkpt>
      <trkpt lat="44.18569" lon="0.79628">
        <ele>153.445</ele>
        <time>2017-08-17T10:16:37Z</time>
      </trkpt>
      <trkpt lat="44.18572" lon="0.79648">
        <ele>150.584</ele>
        <time>2017-08-17T10:16:43Z</time>
      </trkpt>
      <trkpt lat="44.18573" lon="0.79664">
        <ele>148.564</ele>
        <time>2017-08-17T10:16:47Z</time>
      </trkpt>
      <trkpt lat="44.18573" lon="0.79672">
        <ele>147.695</ele>
        <time>2017-08-17T10:16:53Z</time>
      </trkpt>
      <trkpt lat="44.18574" lon="0.79675">
        <ele>146.225</ele>
        <time>2017-08-17T10:17:39Z</time>
      </trkpt>
      <trkpt lat="44.18581" lon="0.79684">
        <ele>145.564</ele>
        <time>2017-08-17T10:17:44Z</time>
      </trkpt>
      <trkpt lat="44.18583" lon="0.79689">
        <ele>145.183</ele>
        <time>2017-08-17T10:17:45Z</time>
      </trkpt>
      <trkpt lat="44.18593" lon="0.79727">
        <ele>143.134</ele>
        <time>2017-08-17T10:17:50Z</time>
      </trkpt>
      <trkpt lat="44.18609" lon="0.79795">
        <ele>143.185</ele>
        <time>2017-08-17T10:17:58Z</time>
      </trkpt>
      <trkpt lat="44.18619" lon="0.7985">
        <ele>143.815</ele>
        <time>2017-08-17T10:18:05Z</time>
      </trkpt>
      <trkpt lat="44.18621" lon="0.79901">
        <ele>145.587</ele>
        <time>2017-08-17T10:18:12Z</time>
      </trkpt>
      <trkpt lat="44.18623" lon="0.79943">
        <ele>146.453</ele>
        <time>2017-08-17T10:18:18Z</time>
      </trkpt>
      <trkpt lat="44.1863" lon="0.7997">
        <ele>146.516</ele>
        <time>2017-08-17T10:18:23Z</time>
      </trkpt>
      <trkpt lat="44.18633" lon="0.79983">
        <ele>145.826</ele>
        <time>2017-08-17T10:18:27Z</time>
      </trkpt>
      <trkpt lat="44.18635" lon="0.79984">
        <ele>145.426</ele>
        <time>2017-08-17T10:18:32Z</time>
      </trkpt>
      <trkpt lat="44.18633" lon="0.79982">
        <ele>144.346</ele>
        <time>2017-08-17T10:19:25Z</time>
      </trkpt>
      <trkpt lat="44.18634" lon="0.79995">
        <ele>143.236</ele>
        <time>2017-08-17T10:19:31Z</time>
      </trkpt>
      <trkpt lat="44.18636" lon="0.80003">
        <ele>142.816</ele>
        <time>2017-08-17T10:19:33Z</time>
      </trkpt>
      <trkpt lat="44.18652" lon="0.80042">
        <ele>143.657</ele>
        <time>2017-08-17T10:19:42Z</time>
      </trkpt>
      <trkpt lat="44.18663" lon="0.80083">
        <ele>146.417</ele>
        <time>2017-08-17T10:19:51Z</time>
      </trkpt>
      <trkpt lat="44.18677" lon="0.80131">
        <ele>147.777</ele>
        <time>2017-08-17T10:20:01Z</time>
      </trkpt>
      <trkpt lat="44.18687" lon="0.80144">
        <ele>148.717</ele>
        <time>2017-08-17T10:20:06Z</time>
      </trkpt>
      <trkpt lat="44.18695" lon="0.80152">
        <ele>150.107</ele>
        <time>2017-08-17T10:20:13Z</time>
      </trkpt>
      <trkpt lat="44.18696" lon="0.80152">
        <ele>150.347</ele>
        <time>2017-08-17T10:20:21Z</time>
      </trkpt>
      <trkpt lat="44.187" lon="0.80147">
        <ele>150.696</ele>
        <time>2017-08-17T10:20:26Z</time>
      </trkpt>
      <trkpt lat="44.18699" lon="0.80142">
        <ele>150.937</ele>
        <time>2017-08-17T10:20:28Z</time>
      </trkpt>
      <trkpt lat="44.18694" lon="0.80124">
        <ele>151.808</ele>
        <time>2017-08-17T10:20:37Z</time>
      </trkpt>
      <trkpt lat="44.18693" lon="0.80123">
        <ele>152.208</ele>
        <time>2017-08-17T10:20:38Z</time>
      </trkpt>
      <trkpt lat="44.18692" lon="0.80108">
        <ele>154.108</ele>
        <time>2017-08-17T10:20:48Z</time>
      </trkpt>
      <trkpt lat="44.18693" lon="0.80093">
        <ele>155.367</ele>
        <time>2017-08-17T10:20:54Z</time>
      </trkpt>
      <trkpt lat="44.187" lon="0.80074">
        <ele>157.278</ele>
        <time>2017-08-17T10:21:02Z</time>
      </trkpt>
      <trkpt lat="44.18705" lon="0.80054">
        <ele>158.878</ele>
        <time>2017-08-17T10:21:11Z</time>
      </trkpt>
      <trkpt lat="44.18709" lon="0.8004">
        <ele>159.735</ele>
        <time>2017-08-17T10:21:18Z</time>
      </trkpt>
      <trkpt lat="44.18713" lon="0.80023">
        <ele>161.003</ele>
        <time>2017-08-17T10:21:26Z</time>
      </trkpt>
      <trkpt lat="44.18721" lon="0.80001">
        <ele>160.947</ele>
        <time>2017-08-17T10:21:36Z</time>
      </trkpt>
      <trkpt lat="44.1873" lon="0.79995">
        <ele>161.197</ele>
        <time>2017-08-17T10:21:42Z</time>
      </trkpt>
      <trkpt lat="44.18744" lon="0.79993">
        <ele>160.887</ele>
        <time>2017-08-17T10:21:50Z</time>
      </trkpt>
      <trkpt lat="44.1876" lon="0.79989">
        <ele>161.877</ele>
        <time>2017-08-17T10:21:59Z</time>
      </trkpt>
      <trkpt lat="44.18773" lon="0.79988">
        <ele>161.596</ele>
        <time>2017-08-17T10:22:05Z</time>
      </trkpt>
      <trkpt lat="44.18785" lon="0.79987">
        <ele>162.006</ele>
        <time>2017-08-17T10:22:11Z</time>
      </trkpt>
      <trkpt lat="44.18787" lon="0.79988">
        <ele>162.027</ele>
        <time>2017-08-17T10:22:12Z</time>
      </trkpt>
      <trkpt lat="44.18795" lon="0.79979">
        <ele>161.467</ele>
        <time>2017-08-17T10:22:17Z</time>
      </trkpt>
      <trkpt lat="44.18795" lon="0.79977">
        <ele>161.366</ele>
        <time>2017-08-17T10:22:18Z</time>
      </trkpt>
      <trkpt lat="44.18796" lon="0.79953">
        <ele>159.666</ele>
        <time>2017-08-17T10:22:26Z</time>
      </trkpt>
      <trkpt lat="44.18794" lon="0.79929">
        <ele>158.216</ele>
        <time>2017-08-17T10:22:33Z</time>
      </trkpt>
      <trkpt lat="44.18792" lon="0.799">
        <ele>156.704</ele>
        <time>2017-08-17T10:22:40Z</time>
      </trkpt>
      <trkpt lat="44.18792" lon="0.79883">
        <ele>156.055</ele>
        <time>2017-08-17T10:22:43Z</time>
      </trkpt>
      <trkpt lat="44.18785" lon="0.79832">
        <ele>154.796</ele>
        <time>2017-08-17T10:22:52Z</time>
      </trkpt>
      <trkpt lat="44.18782" lon="0.79806">
        <ele>153.826</ele>
        <time>2017-08-17T10:22:58Z</time>
      </trkpt>
      <trkpt lat="44.18782" lon="0.79793">
        <ele>153.507</ele>
        <time>2017-08-17T10:23:04Z</time>
      </trkpt>
      <trkpt lat="44.18781" lon="0.79786">
        <ele>153.406</ele>
        <time>2017-08-17T10:23:12Z</time>
      </trkpt>
      <trkpt lat="44.1878" lon="0.79784">
        <ele>153.436</ele>
        <time>2017-08-17T10:23:14Z</time>
      </trkpt>
      <trkpt lat="44.18778" lon="0.79771">
        <ele>153.577</ele>
        <time>2017-08-17T10:23:20Z</time>
      </trkpt>
      <trkpt lat="44.18779" lon="0.79769">
        <ele>153.926</ele>
        <time>2017-08-17T10:23:25Z</time>
      </trkpt>
      <trkpt lat="44.18778" lon="0.79762">
        <ele>149.996</ele>
        <time>2017-08-17T10:23:55Z</time>
      </trkpt>
      <trkpt lat="44.18779" lon="0.79741">
        <ele>150.447</ele>
        <time>2017-08-17T10:24:00Z</time>
      </trkpt>
      <trkpt lat="44.18778" lon="0.79704">
        <ele>149.345</ele>
        <time>2017-08-17T10:24:06Z</time>
      </trkpt>
      <trkpt lat="44.18779" lon="0.79655">
        <ele>149.427</ele>
        <time>2017-08-17T10:24:13Z</time>
      </trkpt>
      <trkpt lat="44.1878" lon="0.79629">
        <ele>150.787</ele>
        <time>2017-08-17T10:24:19Z</time>
      </trkpt>
      <trkpt lat="44.18782" lon="0.79604">
        <ele>150.605</ele>
        <time>2017-08-17T10:24:26Z</time>
      </trkpt>
      <trkpt lat="44.18787" lon="0.79572">
        <ele>150.325</ele>
        <time>2017-08-17T10:24:33Z</time>
      </trkpt>
      <trkpt lat="44.18791" lon="0.79537">
        <ele>151.076</ele>
        <time>2017-08-17T10:24:40Z</time>
      </trkpt>
      <trkpt lat="44.18793" lon="0.79501">
        <ele>151.266</ele>
        <time>2017-08-17T10:24:46Z</time>
      </trkpt>
      <trkpt lat="44.18796" lon="0.7945">
        <ele>151.687</ele>
        <time>2017-08-17T10:24:55Z</time>
      </trkpt>
      <trkpt lat="44.18797" lon="0.79414">
        <ele>151.786</ele>
        <time>2017-08-17T10:25:02Z</time>
      </trkpt>
      <trkpt lat="44.18797" lon="0.79377">
        <ele>152.406</ele>
        <time>2017-08-17T10:25:09Z</time>
      </trkpt>
      <trkpt lat="44.18791" lon="0.79343">
        <ele>152.486</ele>
        <time>2017-08-17T10:25:16Z</time>
      </trkpt>
      <trkpt lat="44.18785" lon="0.7931">
        <ele>152.205</ele>
        <time>2017-08-17T10:25:22Z</time>
      </trkpt>
      <trkpt lat="44.18772" lon="0.79278">
        <ele>150.595</ele>
        <time>2017-08-17T10:25:29Z</time>
      </trkpt>
      <trkpt lat="44.18767" lon="0.79276">
        <ele>150.666</ele>
        <time>2017-08-17T10:25:34Z</time>
      </trkpt>
      <trkpt lat="44.18766" lon="0.79276">
        <ele>150.766</ele>
        <time>2017-08-17T10:25:36Z</time>
      </trkpt>
      <trkpt lat="44.18764" lon="0.79278">
        <ele>150.966</ele>
        <time>2017-08-17T10:25:39Z</time>
      </trkpt>
      <trkpt lat="44.18766" lon="0.79281">
        <ele>151.266</ele>
        <time>2017-08-17T10:25:43Z</time>
      </trkpt>
      <trkpt lat="44.18772" lon="0.79281">
        <ele>150.986</ele>
        <time>2017-08-17T10:25:48Z</time>
      </trkpt>
      <trkpt lat="44.18772" lon="0.79281">
        <ele>150.615</ele>
        <time>2017-08-17T10:25:50Z</time>
      </trkpt>
      <trkpt lat="44.18768" lon="0.79277">
        <ele>150.375</ele>
        <time>2017-08-17T10:25:57Z</time>
      </trkpt>
      <trkpt lat="44.18767" lon="0.79276">
        <ele>150.386</ele>
        <time>2017-08-17T10:25:59Z</time>
      </trkpt>
      <trkpt lat="44.18767" lon="0.79273">
        <ele>150.195</ele>
        <time>2017-08-17T10:26:02Z</time>
      </trkpt>
      <trkpt lat="44.18767" lon="0.79279">
        <ele>150.756</ele>
        <time>2017-08-17T10:26:07Z</time>
      </trkpt>
      <trkpt lat="44.18763" lon="0.79296">
        <ele>152.748</ele>
        <time>2017-08-17T10:26:13Z</time>
      </trkpt>
      <trkpt lat="44.18761" lon="0.79322">
        <ele>156.339</ele>
        <time>2017-08-17T10:26:19Z</time>
      </trkpt>
      <trkpt lat="44.18759" lon="0.79357">
        <ele>158.578</ele>
        <time>2017-08-17T10:26:27Z</time>
      </trkpt>
      <trkpt lat="44.18757" lon="0.79393">
        <ele>160.147</ele>
        <time>2017-08-17T10:26:36Z</time>
      </trkpt>
      <trkpt lat="44.18755" lon="0.79413">
        <ele>160.956</ele>
        <time>2017-08-17T10:26:42Z</time>
      </trkpt>
      <trkpt lat="44.18753" lon="0.79438">
        <ele>161.856</ele>
        <time>2017-08-17T10:26:50Z</time>
      </trkpt>
      <trkpt lat="44.18751" lon="0.79458">
        <ele>162.657</ele>
        <time>2017-08-17T10:26:57Z</time>
      </trkpt>
      <trkpt lat="44.18751" lon="0.79466">
        <ele>163.477</ele>
        <time>2017-08-17T10:27:00Z</time>
      </trkpt>
      <trkpt lat="44.18749" lon="0.79496">
        <ele>163.845</ele>
        <time>2017-08-17T10:27:09Z</time>
      </trkpt>
      <trkpt lat="44.18749" lon="0.79531">
        <ele>163.856</ele>
        <time>2017-08-17T10:27:16Z</time>
      </trkpt>
      <trkpt lat="44.18748" lon="0.79542">
        <ele>163.746</ele>
        <time>2017-08-17T10:27:18Z</time>
      </trkpt>
      <trkpt lat="44.18737" lon="0.7955">
        <ele>163.006</ele>
        <time>2017-08-17T10:27:22Z</time>
      </trkpt>
      <trkpt lat="44.18719" lon="0.79547">
        <ele>164.046</ele>
        <time>2017-08-17T10:27:28Z</time>
      </trkpt>
      <trkpt lat="44.18708" lon="0.79548">
        <ele>166.517</ele>
        <time>2017-08-17T10:27:33Z</time>
      </trkpt>
      <trkpt lat="44.18705" lon="0.79537">
        <ele>166.006</ele>
        <time>2017-08-17T10:27:37Z</time>
      </trkpt>
      <trkpt lat="44.18709" lon="0.79506">
        <ele>164.924</ele>
        <time>2017-08-17T10:27:43Z</time>
      </trkpt>
      <trkpt lat="44.18711" lon="0.79467">
        <ele>165.145</ele>
        <time>2017-08-17T10:27:50Z</time>
      </trkpt>
      <trkpt lat="44.18717" lon="0.79436">
        <ele>164.465</ele>
        <time>2017-08-17T10:27:57Z</time>
      </trkpt>
      <trkpt lat="44.18725" lon="0.79401">
        <ele>162.153</ele>
        <time>2017-08-17T10:28:04Z</time>
      </trkpt>
      <trkpt lat="44.1873" lon="0.79368">
        <ele>160.983</ele>
        <time>2017-08-17T10:28:10Z</time>
      </trkpt>
      <trkpt lat="44.18731" lon="0.79358">
        <ele>160.293</ele>
        <time>2017-08-17T10:28:12Z</time>
      </trkpt>
      <trkpt lat="44.18737" lon="0.79318">
        <ele>158.932</ele>
        <time>2017-08-17T10:28:18Z</time>
      </trkpt>
      <trkpt lat="44.18743" lon="0.79279">
        <ele>155.072</ele>
        <time>2017-08-17T10:28:24Z</time>
      </trkpt>
      <trkpt lat="44.18747" lon="0.79253">
        <ele>152.143</ele>
        <time>2017-08-17T10:28:29Z</time>
      </trkpt>
      <trkpt lat="44.18748" lon="0.79228">
        <ele>150.393</ele>
        <time>2017-08-17T10:28:34Z</time>
      </trkpt>
      <trkpt lat="44.18744" lon="0.79208">
        <ele>150.095</ele>
        <time>2017-08-17T10:28:39Z</time>
      </trkpt>
      <trkpt lat="44.18742" lon="0.79205">
        <ele>149.884</ele>
        <time>2017-08-17T10:28:40Z</time>
      </trkpt>
      <trkpt lat="44.18738" lon="0.79211">
        <ele>148.935</ele>
        <time>2017-08-17T10:28:44Z</time>
      </trkpt>
      <trkpt lat="44.18742" lon="0.79224">
        <ele>149.127</ele>
        <time>2017-08-17T10:28:47Z</time>
      </trkpt>
      <trkpt lat="44.1874" lon="0.79255">
        <ele>151.128</ele>
        <time>2017-08-17T10:28:55Z</time>
      </trkpt>
      <trkpt lat="44.18738" lon="0.79285">
        <ele>154.658</ele>
        <time>2017-08-17T10:29:04Z</time>
      </trkpt>
      <trkpt lat="44.18735" lon="0.79308">
        <ele>158.379</ele>
        <time>2017-08-17T10:29:11Z</time>
      </trkpt>
      <trkpt lat="44.18731" lon="0.79334">
        <ele>163.178</ele>
        <time>2017-08-17T10:29:19Z</time>
      </trkpt>
      <trkpt lat="44.18726" lon="0.79362">
        <ele>164.727</ele>
        <time>2017-08-17T10:29:28Z</time>
      </trkpt>
      <trkpt lat="44.18723" lon="0.79387">
        <ele>166.517</ele>
        <time>2017-08-17T10:29:36Z</time>
      </trkpt>
      <trkpt lat="44.18718" lon="0.79413">
        <ele>167.717</ele>
        <time>2017-08-17T10:29:44Z</time>
      </trkpt>
      <trkpt lat="44.18712" lon="0.79443">
        <ele>168.936</ele>
        <time>2017-08-17T10:29:53Z</time>
      </trkpt>
      <trkpt lat="44.18709" lon="0.79471">
        <ele>170.087</ele>
        <time>2017-08-17T10:30:01Z</time>
      </trkpt>
      <trkpt lat="44.18707" lon="0.79496">
        <ele>169.995</ele>
        <time>2017-08-17T10:30:08Z</time>
      </trkpt>
      <trkpt lat="44.18703" lon="0.79529">
        <ele>169.724</ele>
        <time>2017-08-17T10:30:15Z</time>
      </trkpt>
      <trkpt lat="44.187" lon="0.79558">
        <ele>168.695</ele>
        <time>2017-08-17T10:30:22Z</time>
      </trkpt>
      <trkpt lat="44.18699" lon="0.79589">
        <ele>167.385</ele>
        <time>2017-08-17T10:30:31Z</time>
      </trkpt>
      <trkpt lat="44.18703" lon="0.79618">
        <ele>167.295</ele>
        <time>2017-08-17T10:30:38Z</time>
      </trkpt>
      <trkpt lat="44.18705" lon="0.79647">
        <ele>166.554</ele>
        <time>2017-08-17T10:30:44Z</time>
      </trkpt>
      <trkpt lat="44.18707" lon="0.79702">
        <ele>165.094</ele>
        <time>2017-08-17T10:30:54Z</time>
      </trkpt>
      <trkpt lat="44.18709" lon="0.79751">
        <ele>164.425</ele>
        <time>2017-08-17T10:31:02Z</time>
      </trkpt>
      <trkpt lat="44.18707" lon="0.79766">
        <ele>164.085</ele>
        <time>2017-08-17T10:31:06Z</time>
      </trkpt>
      <trkpt lat="44.18708" lon="0.79768">
        <ele>164.225</ele>
        <time>2017-08-17T10:31:11Z</time>
      </trkpt>
      <trkpt lat="44.18709" lon="0.79772">
        <ele>164.536</ele>
        <time>2017-08-17T10:31:16Z</time>
      </trkpt>
      <trkpt lat="44.1871" lon="0.79773">
        <ele>164.486</ele>
        <time>2017-08-17T10:31:20Z</time>
      </trkpt>
      <trkpt lat="44.18713" lon="0.79782">
        <ele>164.466</ele>
        <time>2017-08-17T10:31:24Z</time>
      </trkpt>
      <trkpt lat="44.18714" lon="0.79788">
        <ele>164.597</ele>
        <time>2017-08-17T10:31:26Z</time>
      </trkpt>
      <trkpt lat="44.18725" lon="0.79789">
        <ele>166.207</ele>
        <time>2017-08-17T10:31:32Z</time>
      </trkpt>
      <trkpt lat="44.18742" lon="0.79787">
        <ele>165.706</ele>
        <time>2017-08-17T10:31:37Z</time>
      </trkpt>
      <trkpt lat="44.18761" lon="0.79782">
        <ele>163.254</ele>
        <time>2017-08-17T10:31:41Z</time>
      </trkpt>
      <trkpt lat="44.18789" lon="0.79781">
        <ele>157.632</ele>
        <time>2017-08-17T10:31:46Z</time>
      </trkpt>
      <trkpt lat="44.18794" lon="0.79781">
        <ele>156.652</ele>
        <time>2017-08-17T10:31:47Z</time>
      </trkpt>
      <trkpt lat="44.18811" lon="0.7978">
        <ele>152.884</ele>
        <time>2017-08-17T10:31:52Z</time>
      </trkpt>
      <trkpt lat="44.18811" lon="0.79779">
        <ele>151.376</ele>
        <time>2017-08-17T10:31:58Z</time>
      </trkpt>
      <trkpt lat="44.18811" lon="0.79778">
        <ele>151.006</ele>
        <time>2017-08-17T10:32:03Z</time>
      </trkpt>
      <trkpt lat="44.18809" lon="0.79764">
        <ele>148.384</ele>
        <time>2017-08-17T10:32:09Z</time>
      </trkpt>
      <trkpt lat="44.1881" lon="0.79732">
        <ele>143.731</ele>
        <time>2017-08-17T10:32:15Z</time>
      </trkpt>
      <trkpt lat="44.1881" lon="0.79718">
        <ele>142.072</ele>
        <time>2017-08-17T10:32:17Z</time>
      </trkpt>
      <trkpt lat="44.18807" lon="0.7969">
        <ele>139.291</ele>
        <time>2017-08-17T10:32:21Z</time>
      </trkpt>
      <trkpt lat="44.18815" lon="0.79674">
        <ele>137.013</ele>
        <time>2017-08-17T10:32:25Z</time>
      </trkpt>
      <trkpt lat="44.18822" lon="0.79678">
        <ele>134.923</ele>
        <time>2017-08-17T10:32:28Z</time>
      </trkpt>
      <trkpt lat="44.18828" lon="0.79684">
        <ele>133.495</ele>
        <time>2017-08-17T10:32:33Z</time>
      </trkpt>
      <trkpt lat="44.18828" lon="0.79686">
        <ele>129.735</ele>
        <time>2017-08-17T10:33:24Z</time>
      </trkpt>
      <trkpt lat="44.18832" lon="0.79691">
        <ele>128.345</ele>
        <time>2017-08-17T10:33:29Z</time>
      </trkpt>
      <trkpt lat="44.18832" lon="0.79693">
        <ele>127.866</ele>
        <time>2017-08-17T10:33:34Z</time>
      </trkpt>
      <trkpt lat="44.18834" lon="0.79691">
        <ele>131.507</ele>
        <time>2017-08-17T10:40:38Z</time>
      </trkpt>
      <trkpt lat="44.18834" lon="0.79691">
        <ele>131.776</ele>
        <time>2017-08-17T10:40:56Z</time>
      </trkpt>
      <trkpt lat="44.18845" lon="0.79698">
        <ele>129.403</ele>
        <time>2017-08-17T10:41:01Z</time>
      </trkpt>
      <trkpt lat="44.18858" lon="0.79712">
        <ele>126.012</ele>
        <time>2017-08-17T10:41:06Z</time>
      </trkpt>
      <trkpt lat="44.18865" lon="0.79722">
        <ele>122.551</ele>
        <time>2017-08-17T10:41:10Z</time>
      </trkpt>
      <trkpt lat="44.18877" lon="0.79736">
        <ele>119.363</ele>
        <time>2017-08-17T10:41:15Z</time>
      </trkpt>
      <trkpt lat="44.18891" lon="0.7975">
        <ele>115.533</ele>
        <time>2017-08-17T10:41:21Z</time>
      </trkpt>
      <trkpt lat="44.18902" lon="0.79758">
        <ele>112.743</ele>
        <time>2017-08-17T10:41:26Z</time>
      </trkpt>
      <trkpt lat="44.18914" lon="0.79771">
        <ele>109.143</ele>
        <time>2017-08-17T10:41:31Z</time>
      </trkpt>
      <trkpt lat="44.18924" lon="0.79796">
        <ele>104.202</ele>
        <time>2017-08-17T10:41:37Z</time>
      </trkpt>
      <trkpt lat="44.1893" lon="0.79814">
        <ele>101.443</ele>
        <time>2017-08-17T10:41:41Z</time>
      </trkpt>
      <trkpt lat="44.18936" lon="0.79832">
        <ele>97.972</ele>
        <time>2017-08-17T10:41:45Z</time>
      </trkpt>
      <trkpt lat="44.18948" lon="0.79865">
        <ele>93.232</ele>
        <time>2017-08-17T10:41:52Z</time>
      </trkpt>
      <trkpt lat="44.18959" lon="0.79884">
        <ele>89.611</ele>
        <time>2017-08-17T10:41:57Z</time>
      </trkpt>
      <trkpt lat="44.1897" lon="0.79903">
        <ele>86.193</ele>
        <time>2017-08-17T10:42:02Z</time>
      </trkpt>
      <trkpt lat="44.18978" lon="0.79918">
        <ele>83.914</ele>
        <time>2017-08-17T10:42:07Z</time>
      </trkpt>
      <trkpt lat="44.18982" lon="0.79923">
        <ele>84.507</ele>
        <time>2017-08-17T10:42:13Z</time>
      </trkpt>
      <trkpt lat="44.18988" lon="0.79931">
        <ele>86.207</ele>
        <time>2017-08-17T10:42:28Z</time>
      </trkpt>
      <trkpt lat="44.18994" lon="0.79953">
        <ele>84.576</ele>
        <time>2017-08-17T10:42:32Z</time>
      </trkpt>
      <trkpt lat="44.19002" lon="0.79994">
        <ele>82.106</ele>
        <time>2017-08-17T10:42:38Z</time>
      </trkpt>
      <trkpt lat="44.19017" lon="0.8006">
        <ele>79.175</ele>
        <time>2017-08-17T10:42:45Z</time>
      </trkpt>
      <trkpt lat="44.19031" lon="0.80121">
        <ele>76.745</ele>
        <time>2017-08-17T10:42:51Z</time>
      </trkpt>
      <trkpt lat="44.19039" lon="0.80151">
        <ele>75.575</ele>
        <time>2017-08-17T10:42:54Z</time>
      </trkpt>
      <trkpt lat="44.19065" lon="0.80193">
        <ele>73.725</ele>
        <time>2017-08-17T10:42:59Z</time>
      </trkpt>
      <trkpt lat="44.19096" lon="0.80214">
        <ele>72.296</ele>
        <time>2017-08-17T10:43:03Z</time>
      </trkpt>
      <trkpt lat="44.19129" lon="0.80219">
        <ele>71.306</ele>
        <time>2017-08-17T10:43:07Z</time>
      </trkpt>
      <trkpt lat="44.19194" lon="0.80214">
        <ele>70.068</ele>
        <time>2017-08-17T10:43:15Z</time>
      </trkpt>
      <trkpt lat="44.19224" lon="0.80213">
        <ele>70.668</ele>
        <time>2017-08-17T10:43:20Z</time>
      </trkpt>
      <trkpt lat="44.19258" lon="0.80213">
        <ele>70.309</ele>
        <time>2017-08-17T10:43:27Z</time>
      </trkpt>
      <trkpt lat="44.1931" lon="0.8021">
        <ele>69.279</ele>
        <time>2017-08-17T10:43:37Z</time>
      </trkpt>
      <trkpt lat="44.19365" lon="0.80208">
        <ele>68.709</ele>
        <time>2017-08-17T10:43:47Z</time>
      </trkpt>
      <trkpt lat="44.19411" lon="0.80206">
        <ele>68.609</ele>
        <time>2017-08-17T10:43:56Z</time>
      </trkpt>
      <trkpt lat="44.19444" lon="0.80205">
        <ele>68.669</ele>
        <time>2017-08-17T10:44:04Z</time>
      </trkpt>
      <trkpt lat="44.19481" lon="0.80203">
        <ele>68.919</ele>
        <time>2017-08-17T10:44:14Z</time>
      </trkpt>
      <trkpt lat="44.19513" lon="0.80203">
        <ele>68.909</ele>
        <time>2017-08-17T10:44:23Z</time>
      </trkpt>
      <trkpt lat="44.19547" lon="0.80202">
        <ele>68.67</ele>
        <time>2017-08-17T10:44:32Z</time>
      </trkpt>
      <trkpt lat="44.19581" lon="0.802">
        <ele>68.581</ele>
        <time>2017-08-17T10:44:41Z</time>
      </trkpt>
      <trkpt lat="44.19617" lon="0.80202">
        <ele>69.081</ele>
        <time>2017-08-17T10:44:51Z</time>
      </trkpt>
      <trkpt lat="44.19636" lon="0.80211">
        <ele>69.011</ele>
        <time>2017-08-17T10:44:56Z</time>
      </trkpt>
      <trkpt lat="44.19649" lon="0.80205">
        <ele>69.501</ele>
        <time>2017-08-17T10:45:00Z</time>
      </trkpt>
      <trkpt lat="44.19666" lon="0.80175">
        <ele>69.191</ele>
        <time>2017-08-17T10:45:08Z</time>
      </trkpt>
      <trkpt lat="44.19689" lon="0.80169">
        <ele>69.521</ele>
        <time>2017-08-17T10:45:14Z</time>
      </trkpt>
      <trkpt lat="44.1973" lon="0.80164">
        <ele>69.531</ele>
        <time>2017-08-17T10:45:25Z</time>
      </trkpt>
      <trkpt lat="44.19759" lon="0.80165">
        <ele>69.642</ele>
        <time>2017-08-17T10:45:34Z</time>
      </trkpt>
      <trkpt lat="44.19792" lon="0.80168">
        <ele>69.722</ele>
        <time>2017-08-17T10:45:44Z</time>
      </trkpt>
      <trkpt lat="44.19815" lon="0.80172">
        <ele>69.962</ele>
        <time>2017-08-17T10:45:52Z</time>
      </trkpt>
      <trkpt lat="44.19839" lon="0.80177">
        <ele>70.742</ele>
        <time>2017-08-17T10:46:02Z</time>
      </trkpt>
      <trkpt lat="44.19859" lon="0.80181">
        <ele>71.612</ele>
        <time>2017-08-17T10:46:11Z</time>
      </trkpt>
      <trkpt lat="44.19874" lon="0.80184">
        <ele>72.042</ele>
        <time>2017-08-17T10:46:18Z</time>
      </trkpt>
      <trkpt lat="44.19887" lon="0.80186">
        <ele>72.442</ele>
        <time>2017-08-17T10:46:24Z</time>
      </trkpt>
      <trkpt lat="44.19902" lon="0.8019">
        <ele>72.953</ele>
        <time>2017-08-17T10:46:31Z</time>
      </trkpt>
      <trkpt lat="44.19917" lon="0.80194">
        <ele>73.303</ele>
        <time>2017-08-17T10:46:39Z</time>
      </trkpt>
      <trkpt lat="44.19934" lon="0.802">
        <ele>73.993</ele>
        <time>2017-08-17T10:46:49Z</time>
      </trkpt>
      <trkpt lat="44.1995" lon="0.80206">
        <ele>74.913</ele>
        <time>2017-08-17T10:46:59Z</time>
      </trkpt>
      <trkpt lat="44.19965" lon="0.80213">
        <ele>75.873</ele>
        <time>2017-08-17T10:47:09Z</time>
      </trkpt>
      <trkpt lat="44.19979" lon="0.80222">
        <ele>76.723</ele>
        <time>2017-08-17T10:47:19Z</time>
      </trkpt>
      <trkpt lat="44.19994" lon="0.80232">
        <ele>77.283</ele>
        <time>2017-08-17T10:47:28Z</time>
      </trkpt>
      <trkpt lat="44.20011" lon="0.80244">
        <ele>77.583</ele>
        <time>2017-08-17T10:47:36Z</time>
      </trkpt>
      <trkpt lat="44.20037" lon="0.80258">
        <ele>76.452</ele>
        <time>2017-08-17T10:47:43Z</time>
      </trkpt>
      <trkpt lat="44.20075" lon="0.80276">
        <ele>75.903</ele>
        <time>2017-08-17T10:47:51Z</time>
      </trkpt>
      <trkpt lat="44.20105" lon="0.80287">
        <ele>75.913</ele>
        <time>2017-08-17T10:47:58Z</time>
      </trkpt>
      <trkpt lat="44.20136" lon="0.80298">
        <ele>76.053</ele>
        <time>2017-08-17T10:48:07Z</time>
      </trkpt>
      <trkpt lat="44.20173" lon="0.80309">
        <ele>76.683</ele>
        <time>2017-08-17T10:48:17Z</time>
      </trkpt>
      <trkpt lat="44.20191" lon="0.80314">
        <ele>77.453</ele>
        <time>2017-08-17T10:48:24Z</time>
      </trkpt>
      <trkpt lat="44.20212" lon="0.80321">
        <ele>78.254</ele>
        <time>2017-08-17T10:48:34Z</time>
      </trkpt>
      <trkpt lat="44.20232" lon="0.80328">
        <ele>79.074</ele>
        <time>2017-08-17T10:48:44Z</time>
      </trkpt>
      <trkpt lat="44.20258" lon="0.80336">
        <ele>80.084</ele>
        <time>2017-08-17T10:48:56Z</time>
      </trkpt>
      <trkpt lat="44.20279" lon="0.80343">
        <ele>80.674</ele>
        <time>2017-08-17T10:49:06Z</time>
      </trkpt>
      <trkpt lat="44.20303" lon="0.80356">
        <ele>81.374</ele>
        <time>2017-08-17T10:49:17Z</time>
      </trkpt>
      <trkpt lat="44.20325" lon="0.80375">
        <ele>81.604</ele>
        <time>2017-08-17T10:49:26Z</time>
      </trkpt>
      <trkpt lat="44.20338" lon="0.8039">
        <ele>81.835</ele>
        <time>2017-08-17T10:49:32Z</time>
      </trkpt>
      <trkpt lat="44.20357" lon="0.80413">
        <ele>82.035</ele>
        <time>2017-08-17T10:49:40Z</time>
      </trkpt>
      <trkpt lat="44.20378" lon="0.80432">
        <ele>82.394</ele>
        <time>2017-08-17T10:49:47Z</time>
      </trkpt>
      <trkpt lat="44.20405" lon="0.8045">
        <ele>81.564</ele>
        <time>2017-08-17T10:49:54Z</time>
      </trkpt>
      <trkpt lat="44.20447" lon="0.80469">
        <ele>79.684</ele>
        <time>2017-08-17T10:50:03Z</time>
      </trkpt>
      <trkpt lat="44.20495" lon="0.80493">
        <ele>79.025</ele>
        <time>2017-08-17T10:50:13Z</time>
      </trkpt>
      <trkpt lat="44.2053" lon="0.80513">
        <ele>79.005</ele>
        <time>2017-08-17T10:50:22Z</time>
      </trkpt>
      <trkpt lat="44.20569" lon="0.80534">
        <ele>78.585</ele>
        <time>2017-08-17T10:50:32Z</time>
      </trkpt>
      <trkpt lat="44.20601" lon="0.80551">
        <ele>78.086</ele>
        <time>2017-08-17T10:50:41Z</time>
      </trkpt>
      <trkpt lat="44.20625" lon="0.80565">
        <ele>78.146</ele>
        <time>2017-08-17T10:50:49Z</time>
      </trkpt>
      <trkpt lat="44.20637" lon="0.80584">
        <ele>78.377</ele>
        <time>2017-08-17T10:50:55Z</time>
      </trkpt>
      <trkpt lat="44.2065" lon="0.80616">
        <ele>78.767</ele>
        <time>2017-08-17T10:51:04Z</time>
      </trkpt>
      <trkpt lat="44.20659" lon="0.80638">
        <ele>79.156</ele>
        <time>2017-08-17T10:51:11Z</time>
      </trkpt>
      <trkpt lat="44.20675" lon="0.80668">
        <ele>79.306</ele>
        <time>2017-08-17T10:51:20Z</time>
      </trkpt>
      <trkpt lat="44.207" lon="0.80709">
        <ele>79.246</ele>
        <time>2017-08-17T10:51:31Z</time>
      </trkpt>
      <trkpt lat="44.20725" lon="0.80739">
        <ele>79.127</ele>
        <time>2017-08-17T10:51:41Z</time>
      </trkpt>
      <trkpt lat="44.20748" lon="0.80761">
        <ele>79.377</ele>
        <time>2017-08-17T10:51:50Z</time>
      </trkpt>
      <trkpt lat="44.20774" lon="0.80788">
        <ele>79.227</ele>
        <time>2017-08-17T10:52:00Z</time>
      </trkpt>
      <trkpt lat="44.20795" lon="0.80808">
        <ele>79.277</ele>
        <time>2017-08-17T10:52:08Z</time>
      </trkpt>
      <trkpt lat="44.20824" lon="0.8083">
        <ele>79.727</ele>
        <time>2017-08-17T10:52:19Z</time>
      </trkpt>
      <trkpt lat="44.20844" lon="0.80848">
        <ele>79.977</ele>
        <time>2017-08-17T10:52:27Z</time>
      </trkpt>
      <trkpt lat="44.20865" lon="0.80872">
        <ele>80.158</ele>
        <time>2017-08-17T10:52:36Z</time>
      </trkpt>
      <trkpt lat="44.2089" lon="0.80901">
        <ele>80.278</ele>
        <time>2017-08-17T10:52:47Z</time>
      </trkpt>
      <trkpt lat="44.20916" lon="0.80932">
        <ele>80.368</ele>
        <time>2017-08-17T10:52:59Z</time>
      </trkpt>
      <trkpt lat="44.20939" lon="0.80958">
        <ele>80.388</ele>
        <time>2017-08-17T10:53:09Z</time>
      </trkpt>
      <trkpt lat="44.20958" lon="0.80983">
        <ele>80.628</ele>
        <time>2017-08-17T10:53:18Z</time>
      </trkpt>
      <trkpt lat="44.20975" lon="0.81017">
        <ele>80.658</ele>
        <time>2017-08-17T10:53:28Z</time>
      </trkpt>
      <trkpt lat="44.20995" lon="0.81069">
        <ele>81.149</ele>
        <time>2017-08-17T10:53:43Z</time>
      </trkpt>
      <trkpt lat="44.21007" lon="0.81101">
        <ele>80.479</ele>
        <time>2017-08-17T10:53:52Z</time>
      </trkpt>
      <trkpt lat="44.2102" lon="0.81133">
        <ele>80.409</ele>
        <time>2017-08-17T10:54:01Z</time>
      </trkpt>
      <trkpt lat="44.21035" lon="0.81166">
        <ele>80.619</ele>
        <time>2017-08-17T10:54:10Z</time>
      </trkpt>
      <trkpt lat="44.21059" lon="0.81209">
        <ele>80.549</ele>
        <time>2017-08-17T10:54:22Z</time>
      </trkpt>
      <trkpt lat="44.21076" lon="0.81251">
        <ele>80.859</ele>
        <time>2017-08-17T10:54:32Z</time>
      </trkpt>
      <trkpt lat="44.21084" lon="0.81289">
        <ele>81.1</ele>
        <time>2017-08-17T10:54:40Z</time>
      </trkpt>
      <trkpt lat="44.21088" lon="0.81347">
        <ele>81.4</ele>
        <time>2017-08-17T10:54:52Z</time>
      </trkpt>
      <trkpt lat="44.21094" lon="0.81379">
        <ele>81.63</ele>
        <time>2017-08-17T10:55:00Z</time>
      </trkpt>
      <trkpt lat="44.21104" lon="0.81418">
        <ele>81.811</ele>
        <time>2017-08-17T10:55:10Z</time>
      </trkpt>
      <trkpt lat="44.21113" lon="0.81468">
        <ele>81.97</ele>
        <time>2017-08-17T10:55:22Z</time>
      </trkpt>
      <trkpt lat="44.21116" lon="0.81496">
        <ele>81.88</ele>
        <time>2017-08-17T10:55:29Z</time>
      </trkpt>
      <trkpt lat="44.21123" lon="0.8154">
        <ele>81.981</ele>
        <time>2017-08-17T10:55:39Z</time>
      </trkpt>
      <trkpt lat="44.21132" lon="0.81573">
        <ele>82.261</ele>
        <time>2017-08-17T10:55:47Z</time>
      </trkpt>
      <trkpt lat="44.21147" lon="0.81612">
        <ele>82.361</ele>
        <time>2017-08-17T10:55:57Z</time>
      </trkpt>
      <trkpt lat="44.2116" lon="0.81638">
        <ele>82.891</ele>
        <time>2017-08-17T10:56:05Z</time>
      </trkpt>
      <trkpt lat="44.21164" lon="0.81645">
        <ele>83.421</ele>
        <time>2017-08-17T10:56:10Z</time>
      </trkpt>
      <trkpt lat="44.21166" lon="0.81649">
        <ele>84.501</ele>
        <time>2017-08-17T10:56:42Z</time>
      </trkpt>
      <trkpt lat="44.21169" lon="0.81652">
        <ele>84.351</ele>
        <time>2017-08-17T10:56:46Z</time>
      </trkpt>
      <trkpt lat="44.21175" lon="0.81655">
        <ele>88.891</ele>
        <time>2017-08-17T10:58:16Z</time>
      </trkpt>
      <trkpt lat="44.21185" lon="0.81671">
        <ele>88.581</ele>
        <time>2017-08-17T10:58:22Z</time>
      </trkpt>
      <trkpt lat="44.21206" lon="0.81703">
        <ele>87.361</ele>
        <time>2017-08-17T10:58:31Z</time>
      </trkpt>
      <trkpt lat="44.21233" lon="0.8174">
        <ele>86.891</ele>
        <time>2017-08-17T10:58:41Z</time>
      </trkpt>
      <trkpt lat="44.21256" lon="0.81773">
        <ele>86.571</ele>
        <time>2017-08-17T10:58:50Z</time>
      </trkpt>
      <trkpt lat="44.21286" lon="0.81813">
        <ele>86.362</ele>
        <time>2017-08-17T10:59:01Z</time>
      </trkpt>
      <trkpt lat="44.21314" lon="0.81848">
        <ele>86.261</ele>
        <time>2017-08-17T10:59:10Z</time>
      </trkpt>
      <trkpt lat="44.21347" lon="0.8189">
        <ele>85.792</ele>
        <time>2017-08-17T10:59:21Z</time>
      </trkpt>
      <trkpt lat="44.21372" lon="0.81926">
        <ele>85.892</ele>
        <time>2017-08-17T10:59:30Z</time>
      </trkpt>
      <trkpt lat="44.21389" lon="0.81951">
        <ele>86.132</ele>
        <time>2017-08-17T10:59:38Z</time>
      </trkpt>
      <trkpt lat="44.21406" lon="0.8198">
        <ele>86.503</ele>
        <time>2017-08-17T10:59:47Z</time>
      </trkpt>
      <trkpt lat="44.21418" lon="0.82006">
        <ele>86.863</ele>
        <time>2017-08-17T10:59:56Z</time>
      </trkpt>
      <trkpt lat="44.2143" lon="0.82039">
        <ele>87.013</ele>
        <time>2017-08-17T11:00:06Z</time>
      </trkpt>
      <trkpt lat="44.21446" lon="0.8208">
        <ele>87.333</ele>
        <time>2017-08-17T11:00:17Z</time>
      </trkpt>
      <trkpt lat="44.2146" lon="0.82106">
        <ele>87.383</ele>
        <time>2017-08-17T11:00:25Z</time>
      </trkpt>
      <trkpt lat="44.21478" lon="0.82129">
        <ele>87.402</ele>
        <time>2017-08-17T11:00:33Z</time>
      </trkpt>
      <trkpt lat="44.21495" lon="0.82144">
        <ele>87.112</ele>
        <time>2017-08-17T11:00:39Z</time>
      </trkpt>
      <trkpt lat="44.21517" lon="0.8217">
        <ele>86.683</ele>
        <time>2017-08-17T11:00:47Z</time>
      </trkpt>
      <trkpt lat="44.21528" lon="0.82197">
        <ele>86.573</ele>
        <time>2017-08-17T11:00:54Z</time>
      </trkpt>
      <trkpt lat="44.21539" lon="0.82232">
        <ele>86.904</ele>
        <time>2017-08-17T11:01:04Z</time>
      </trkpt>
      <trkpt lat="44.21549" lon="0.82269">
        <ele>87.364</ele>
        <time>2017-08-17T11:01:14Z</time>
      </trkpt>
      <trkpt lat="44.21557" lon="0.82299">
        <ele>87.934</ele>
        <time>2017-08-17T11:01:23Z</time>
      </trkpt>
      <trkpt lat="44.21565" lon="0.82321">
        <ele>87.894</ele>
        <time>2017-08-17T11:01:31Z</time>
      </trkpt>
      <trkpt lat="44.21576" lon="0.82355">
        <ele>87.504</ele>
        <time>2017-08-17T11:01:41Z</time>
      </trkpt>
      <trkpt lat="44.21584" lon="0.82378">
        <ele>87.534</ele>
        <time>2017-08-17T11:01:49Z</time>
      </trkpt>
      <trkpt lat="44.21592" lon="0.82403">
        <ele>87.454</ele>
        <time>2017-08-17T11:01:56Z</time>
      </trkpt>
      <trkpt lat="44.21602" lon="0.82434">
        <ele>87.824</ele>
        <time>2017-08-17T11:02:05Z</time>
      </trkpt>
      <trkpt lat="44.21618" lon="0.82479">
        <ele>88.294</ele>
        <time>2017-08-17T11:02:17Z</time>
      </trkpt>
      <trkpt lat="44.21629" lon="0.82511">
        <ele>87.894</ele>
        <time>2017-08-17T11:02:26Z</time>
      </trkpt>
      <trkpt lat="44.21643" lon="0.82552">
        <ele>88.755</ele>
        <time>2017-08-17T11:02:38Z</time>
      </trkpt>
      <trkpt lat="44.21659" lon="0.82587">
        <ele>89.065</ele>
        <time>2017-08-17T11:02:49Z</time>
      </trkpt>
      <trkpt lat="44.21669" lon="0.82606">
        <ele>89.516</ele>
        <time>2017-08-17T11:02:56Z</time>
      </trkpt>
      <trkpt lat="44.21681" lon="0.82627">
        <ele>90.275</ele>
        <time>2017-08-17T11:03:04Z</time>
      </trkpt>
      <trkpt lat="44.21694" lon="0.82649">
        <ele>90.905</ele>
        <time>2017-08-17T11:03:13Z</time>
      </trkpt>
      <trkpt lat="44.21708" lon="0.82673">
        <ele>91.285</ele>
        <time>2017-08-17T11:03:22Z</time>
      </trkpt>
      <trkpt lat="44.21729" lon="0.82708">
        <ele>91.905</ele>
        <time>2017-08-17T11:03:35Z</time>
      </trkpt>
      <trkpt lat="44.21752" lon="0.82739">
        <ele>92.426</ele>
        <time>2017-08-17T11:03:47Z</time>
      </trkpt>
      <trkpt lat="44.21772" lon="0.82762">
        <ele>93.436</ele>
        <time>2017-08-17T11:03:57Z</time>
      </trkpt>
      <trkpt lat="44.21791" lon="0.82786">
        <ele>93.345</ele>
        <time>2017-08-17T11:04:06Z</time>
      </trkpt>
      <trkpt lat="44.21815" lon="0.8282">
        <ele>92.446</ele>
        <time>2017-08-17T11:04:16Z</time>
      </trkpt>
      <trkpt lat="44.21837" lon="0.82852">
        <ele>92.066</ele>
        <time>2017-08-17T11:04:25Z</time>
      </trkpt>
      <trkpt lat="44.21857" lon="0.82885">
        <ele>91.535</ele>
        <time>2017-08-17T11:04:35Z</time>
      </trkpt>
      <trkpt lat="44.21874" lon="0.82917">
        <ele>91.096</ele>
        <time>2017-08-17T11:04:46Z</time>
      </trkpt>
      <trkpt lat="44.2189" lon="0.82953">
        <ele>91.737</ele>
        <time>2017-08-17T11:04:56Z</time>
      </trkpt>
      <trkpt lat="44.219" lon="0.82984">
        <ele>93.157</ele>
        <time>2017-08-17T11:05:04Z</time>
      </trkpt>
      <trkpt lat="44.21914" lon="0.83014">
        <ele>94.818</ele>
        <time>2017-08-17T11:05:13Z</time>
      </trkpt>
      <trkpt lat="44.21931" lon="0.83037">
        <ele>96.748</ele>
        <time>2017-08-17T11:05:22Z</time>
      </trkpt>
      <trkpt lat="44.21945" lon="0.83057">
        <ele>98.398</ele>
        <time>2017-08-17T11:05:30Z</time>
      </trkpt>
      <trkpt lat="44.21957" lon="0.83078">
        <ele>99.167</ele>
        <time>2017-08-17T11:05:39Z</time>
      </trkpt>
      <trkpt lat="44.21973" lon="0.83105">
        <ele>98.387</ele>
        <time>2017-08-17T11:05:46Z</time>
      </trkpt>
      <trkpt lat="44.21986" lon="0.83141">
        <ele>97.407</ele>
        <time>2017-08-17T11:05:53Z</time>
      </trkpt>
      <trkpt lat="44.21994" lon="0.83176">
        <ele>96.227</ele>
        <time>2017-08-17T11:06:00Z</time>
      </trkpt>
      <trkpt lat="44.22007" lon="0.83194">
        <ele>96.178</ele>
        <time>2017-08-17T11:06:05Z</time>
      </trkpt>
      <trkpt lat="44.22027" lon="0.83208">
        <ele>96.258</ele>
        <time>2017-08-17T11:06:12Z</time>
      </trkpt>
      <trkpt lat="44.22044" lon="0.83233">
        <ele>95.287</ele>
        <time>2017-08-17T11:06:20Z</time>
      </trkpt>
      <trkpt lat="44.22053" lon="0.83259">
        <ele>95.338</ele>
        <time>2017-08-17T11:06:29Z</time>
      </trkpt>
      <trkpt lat="44.22057" lon="0.83283">
        <ele>95.298</ele>
        <time>2017-08-17T11:06:36Z</time>
      </trkpt>
      <trkpt lat="44.2206" lon="0.83307">
        <ele>95.758</ele>
        <time>2017-08-17T11:06:43Z</time>
      </trkpt>
      <trkpt lat="44.2206" lon="0.8334">
        <ele>95.358</ele>
        <time>2017-08-17T11:06:52Z</time>
      </trkpt>
      <trkpt lat="44.22059" lon="0.83376">
        <ele>94.728</ele>
        <time>2017-08-17T11:07:01Z</time>
      </trkpt>
      <trkpt lat="44.2206" lon="0.83413">
        <ele>94.368</ele>
        <time>2017-08-17T11:07:09Z</time>
      </trkpt>
      <trkpt lat="44.22071" lon="0.83439">
        <ele>94.108</ele>
        <time>2017-08-17T11:07:15Z</time>
      </trkpt>
      <trkpt lat="44.22087" lon="0.83462">
        <ele>94.099</ele>
        <time>2017-08-17T11:07:22Z</time>
      </trkpt>
      <trkpt lat="44.22106" lon="0.83486">
        <ele>94.479</ele>
        <time>2017-08-17T11:07:30Z</time>
      </trkpt>
      <trkpt lat="44.22127" lon="0.83507">
        <ele>94.539</ele>
        <time>2017-08-17T11:07:38Z</time>
      </trkpt>
      <trkpt lat="44.22151" lon="0.83528">
        <ele>94.479</ele>
        <time>2017-08-17T11:07:47Z</time>
      </trkpt>
      <trkpt lat="44.22175" lon="0.83551">
        <ele>93.909</ele>
        <time>2017-08-17T11:07:56Z</time>
      </trkpt>
      <trkpt lat="44.22193" lon="0.83577">
        <ele>93.759</ele>
        <time>2017-08-17T11:08:04Z</time>
      </trkpt>
      <trkpt lat="44.22207" lon="0.83602">
        <ele>94.039</ele>
        <time>2017-08-17T11:08:12Z</time>
      </trkpt>
      <trkpt lat="44.22221" lon="0.83623">
        <ele>94.389</ele>
        <time>2017-08-17T11:08:19Z</time>
      </trkpt>
      <trkpt lat="44.2224" lon="0.83649">
        <ele>94.629</ele>
        <time>2017-08-17T11:08:28Z</time>
      </trkpt>
      <trkpt lat="44.22255" lon="0.83671">
        <ele>94.899</ele>
        <time>2017-08-17T11:08:36Z</time>
      </trkpt>
      <trkpt lat="44.22274" lon="0.83686">
        <ele>94.739</ele>
        <time>2017-08-17T11:08:44Z</time>
      </trkpt>
      <trkpt lat="44.22297" lon="0.837">
        <ele>94.53</ele>
        <time>2017-08-17T11:08:52Z</time>
      </trkpt>
      <trkpt lat="44.2232" lon="0.83716">
        <ele>94.82</ele>
        <time>2017-08-17T11:08:59Z</time>
      </trkpt>
      <trkpt lat="44.22342" lon="0.8373">
        <ele>95.23</ele>
        <time>2017-08-17T11:09:07Z</time>
      </trkpt>
      <trkpt lat="44.22366" lon="0.83746">
        <ele>95.25</ele>
        <time>2017-08-17T11:09:15Z</time>
      </trkpt>
      <trkpt lat="44.22391" lon="0.83765">
        <ele>95.628</ele>
        <time>2017-08-17T11:09:24Z</time>
      </trkpt>
      <trkpt lat="44.22409" lon="0.83783">
        <ele>96.331</ele>
        <time>2017-08-17T11:09:32Z</time>
      </trkpt>
      <trkpt lat="44.22424" lon="0.83802">
        <ele>97.4</ele>
        <time>2017-08-17T11:09:42Z</time>
      </trkpt>
      <trkpt lat="44.22437" lon="0.83821">
        <ele>97.951</ele>
        <time>2017-08-17T11:09:51Z</time>
      </trkpt>
      <trkpt lat="44.2245" lon="0.8384">
        <ele>99.601</ele>
        <time>2017-08-17T11:10:00Z</time>
      </trkpt>
      <trkpt lat="44.22465" lon="0.83862">
        <ele>100.261</ele>
        <time>2017-08-17T11:10:10Z</time>
      </trkpt>
      <trkpt lat="44.22481" lon="0.83886">
        <ele>99.711</ele>
        <time>2017-08-17T11:10:19Z</time>
      </trkpt>
      <trkpt lat="44.22504" lon="0.83924">
        <ele>99.091</ele>
        <time>2017-08-17T11:10:30Z</time>
      </trkpt>
      <trkpt lat="44.22511" lon="0.83939">
        <ele>98.83</ele>
        <time>2017-08-17T11:10:34Z</time>
      </trkpt>
      <trkpt lat="44.22509" lon="0.83952">
        <ele>99.162</ele>
        <time>2017-08-17T11:10:38Z</time>
      </trkpt>
      <trkpt lat="44.22505" lon="0.83955">
        <ele>99.493</ele>
        <time>2017-08-17T11:10:40Z</time>
      </trkpt>
      <trkpt lat="44.22489" lon="0.83967">
        <ele>101.112</ele>
        <time>2017-08-17T11:10:50Z</time>
      </trkpt>
      <trkpt lat="44.22475" lon="0.83976">
        <ele>102.652</ele>
        <time>2017-08-17T11:11:01Z</time>
      </trkpt>
      <trkpt lat="44.22465" lon="0.83982">
        <ele>103.752</ele>
        <time>2017-08-17T11:11:09Z</time>
      </trkpt>
      <trkpt lat="44.22457" lon="0.83987">
        <ele>104.622</ele>
        <time>2017-08-17T11:11:16Z</time>
      </trkpt>
      <trkpt lat="44.22441" lon="0.83996">
        <ele>106.182</ele>
        <time>2017-08-17T11:11:28Z</time>
      </trkpt>
      <trkpt lat="44.2243" lon="0.84002">
        <ele>106.902</ele>
        <time>2017-08-17T11:11:38Z</time>
      </trkpt>
      <trkpt lat="44.22423" lon="0.84007">
        <ele>107.502</ele>
        <time>2017-08-17T11:11:45Z</time>
      </trkpt>
      <trkpt lat="44.22413" lon="0.84011">
        <ele>108.172</ele>
        <time>2017-08-17T11:11:54Z</time>
      </trkpt>
      <trkpt lat="44.22406" lon="0.84015">
        <ele>108.602</ele>
        <time>2017-08-17T11:12:01Z</time>
      </trkpt>
      <trkpt lat="44.22402" lon="0.84018">
        <ele>108.711</ele>
        <time>2017-08-17T11:12:06Z</time>
      </trkpt>
      <trkpt lat="44.22394" lon="0.84022">
        <ele>108.621</ele>
        <time>2017-08-17T11:12:14Z</time>
      </trkpt>
      <trkpt lat="44.22394" lon="0.84022">
        <ele>108.561</ele>
        <time>2017-08-17T11:12:15Z</time>
      </trkpt>
      <trkpt lat="44.22387" lon="0.84026">
        <ele>109.242</ele>
        <time>2017-08-17T11:12:24Z</time>
      </trkpt>
      <trkpt lat="44.22385" lon="0.84027">
        <ele>109.402</ele>
        <time>2017-08-17T11:12:26Z</time>
      </trkpt>
      <trkpt lat="44.22381" lon="0.8403">
        <ele>109.772</ele>
        <time>2017-08-17T11:12:31Z</time>
      </trkpt>
      <trkpt lat="44.22371" lon="0.84035">
        <ele>110.832</ele>
        <time>2017-08-17T11:12:41Z</time>
      </trkpt>
      <trkpt lat="44.22363" lon="0.8404">
        <ele>111.602</ele>
        <time>2017-08-17T11:12:50Z</time>
      </trkpt>
      <trkpt lat="44.22354" lon="0.84045">
        <ele>112.542</ele>
        <time>2017-08-17T11:12:59Z</time>
      </trkpt>
      <trkpt lat="44.22344" lon="0.84051">
        <ele>113.491</ele>
        <time>2017-08-17T11:13:10Z</time>
      </trkpt>
      <trkpt lat="44.22335" lon="0.84055">
        <ele>114.102</ele>
        <time>2017-08-17T11:13:19Z</time>
      </trkpt>
      <trkpt lat="44.22325" lon="0.84061">
        <ele>114.831</ele>
        <time>2017-08-17T11:13:29Z</time>
      </trkpt>
      <trkpt lat="44.22323" lon="0.84063">
        <ele>115.101</ele>
        <time>2017-08-17T11:13:36Z</time>
      </trkpt>
      <trkpt lat="44.22322" lon="0.84064">
        <ele>115.321</ele>
        <time>2017-08-17T11:13:42Z</time>
      </trkpt>
      <trkpt lat="44.22315" lon="0.84069">
        <ele>115.491</ele>
        <time>2017-08-17T11:13:51Z</time>
      </trkpt>
      <trkpt lat="44.22311" lon="0.84069">
        <ele>115.211</ele>
        <time>2017-08-17T11:13:57Z</time>
      </trkpt>
      <trkpt lat="44.2231" lon="0.8407">
        <ele>115.201</ele>
        <time>2017-08-17T11:13:59Z</time>
      </trkpt>
      <trkpt lat="44.22303" lon="0.84071">
        <ele>115.401</ele>
        <time>2017-08-17T11:14:09Z</time>
      </trkpt>
      <trkpt lat="44.22296" lon="0.84074">
        <ele>116.071</ele>
        <time>2017-08-17T11:14:18Z</time>
      </trkpt>
      <trkpt lat="44.22288" lon="0.84077">
        <ele>116.921</ele>
        <time>2017-08-17T11:14:28Z</time>
      </trkpt>
      <trkpt lat="44.22278" lon="0.84079">
        <ele>117.962</ele>
        <time>2017-08-17T11:14:40Z</time>
      </trkpt>
      <trkpt lat="44.2227" lon="0.8408">
        <ele>118.931</ele>
        <time>2017-08-17T11:14:48Z</time>
      </trkpt>
      <trkpt lat="44.2226" lon="0.84083">
        <ele>120.131</ele>
        <time>2017-08-17T11:14:58Z</time>
      </trkpt>
      <trkpt lat="44.22252" lon="0.84084">
        <ele>120.931</ele>
        <time>2017-08-17T11:15:07Z</time>
      </trkpt>
      <trkpt lat="44.22244" lon="0.84086">
        <ele>121.771</ele>
        <time>2017-08-17T11:15:17Z</time>
      </trkpt>
      <trkpt lat="44.22239" lon="0.84087">
        <ele>122.221</ele>
        <time>2017-08-17T11:15:24Z</time>
      </trkpt>
      <trkpt lat="44.22232" lon="0.84089">
        <ele>122.871</ele>
        <time>2017-08-17T11:15:33Z</time>
      </trkpt>
      <trkpt lat="44.22228" lon="0.84091">
        <ele>123.282</ele>
        <time>2017-08-17T11:15:40Z</time>
      </trkpt>
      <trkpt lat="44.22222" lon="0.84092">
        <ele>123.892</ele>
        <time>2017-08-17T11:15:49Z</time>
      </trkpt>
      <trkpt lat="44.22216" lon="0.84094">
        <ele>124.571</ele>
        <time>2017-08-17T11:15:59Z</time>
      </trkpt>
      <trkpt lat="44.2221" lon="0.84095">
        <ele>125.041</ele>
        <time>2017-08-17T11:16:10Z</time>
      </trkpt>
      <trkpt lat="44.22204" lon="0.84097">
        <ele>125.752</ele>
        <time>2017-08-17T11:16:19Z</time>
      </trkpt>
      <trkpt lat="44.22199" lon="0.84099">
        <ele>126.442</ele>
        <time>2017-08-17T11:16:27Z</time>
      </trkpt>
      <trkpt lat="44.22192" lon="0.84102">
        <ele>127.511</ele>
        <time>2017-08-17T11:16:39Z</time>
      </trkpt>
      <trkpt lat="44.22188" lon="0.84103">
        <ele>128.142</ele>
        <time>2017-08-17T11:17:00Z</time>
      </trkpt>
      <trkpt lat="44.22179" lon="0.84107">
        <ele>129.664</ele>
        <time>2017-08-17T11:17:08Z</time>
      </trkpt>
      <trkpt lat="44.22169" lon="0.84112">
        <ele>131.434</ele>
        <time>2017-08-17T11:17:17Z</time>
      </trkpt>
      <trkpt lat="44.22159" lon="0.84116">
        <ele>133.003</ele>
        <time>2017-08-17T11:17:27Z</time>
      </trkpt>
      <trkpt lat="44.22147" lon="0.84121">
        <ele>134.701</ele>
        <time>2017-08-17T11:17:38Z</time>
      </trkpt>
      <trkpt lat="44.22136" lon="0.84129">
        <ele>135.72</ele>
        <time>2017-08-17T11:17:49Z</time>
      </trkpt>
      <trkpt lat="44.22128" lon="0.84139">
        <ele>135.7</ele>
        <time>2017-08-17T11:17:58Z</time>
      </trkpt>
      <trkpt lat="44.22119" lon="0.84158">
        <ele>138.582</ele>
        <time>2017-08-17T11:18:11Z</time>
      </trkpt>
      <trkpt lat="44.22112" lon="0.84177">
        <ele>142.352</ele>
        <time>2017-08-17T11:18:23Z</time>
      </trkpt>
      <trkpt lat="44.22103" lon="0.84196">
        <ele>143.83</ele>
        <time>2017-08-17T11:18:36Z</time>
      </trkpt>
      <trkpt lat="44.22097" lon="0.84209">
        <ele>144.841</ele>
        <time>2017-08-17T11:18:45Z</time>
      </trkpt>
      <trkpt lat="44.22091" lon="0.84224">
        <ele>146.141</ele>
        <time>2017-08-17T11:18:54Z</time>
      </trkpt>
      <trkpt lat="44.22083" lon="0.8424">
        <ele>148.161</ele>
        <time>2017-08-17T11:19:03Z</time>
      </trkpt>
      <trkpt lat="44.22076" lon="0.84254">
        <ele>148.78</ele>
        <time>2017-08-17T11:19:11Z</time>
      </trkpt>
      <trkpt lat="44.22068" lon="0.84268">
        <ele>150.081</ele>
        <time>2017-08-17T11:19:19Z</time>
      </trkpt>
      <trkpt lat="44.22059" lon="0.84286">
        <ele>151.452</ele>
        <time>2017-08-17T11:19:29Z</time>
      </trkpt>
      <trkpt lat="44.2205" lon="0.84308">
        <ele>154.484</ele>
        <time>2017-08-17T11:19:41Z</time>
      </trkpt>
      <trkpt lat="44.22042" lon="0.84333">
        <ele>157.033</ele>
        <time>2017-08-17T11:19:53Z</time>
      </trkpt>
      <trkpt lat="44.22036" lon="0.8435">
        <ele>158.343</ele>
        <time>2017-08-17T11:20:02Z</time>
      </trkpt>
      <trkpt lat="44.22024" lon="0.84371">
        <ele>161.966</ele>
        <time>2017-08-17T11:20:14Z</time>
      </trkpt>
      <trkpt lat="44.22012" lon="0.84393">
        <ele>165.836</ele>
        <time>2017-08-17T11:20:26Z</time>
      </trkpt>
      <trkpt lat="44.22006" lon="0.84413">
        <ele>166.955</ele>
        <time>2017-08-17T11:20:32Z</time>
      </trkpt>
      <trkpt lat="44.22" lon="0.8444">
        <ele>168.453</ele>
        <time>2017-08-17T11:20:39Z</time>
      </trkpt>
      <trkpt lat="44.21999" lon="0.84454">
        <ele>168.742</ele>
        <time>2017-08-17T11:20:45Z</time>
      </trkpt>
      <trkpt lat="44.21999" lon="0.84456">
        <ele>168.94</ele>
        <time>2017-08-17T11:20:51Z</time>
      </trkpt>
      <trkpt lat="44.21999" lon="0.84456">
        <ele>168.99</ele>
        <time>2017-08-17T11:20:54Z</time>
      </trkpt>
      <trkpt lat="44.21996" lon="0.84468">
        <ele>168.2</ele>
        <time>2017-08-17T11:21:02Z</time>
      </trkpt>
      <trkpt lat="44.21997" lon="0.84467">
        <ele>167.281</ele>
        <time>2017-08-17T11:21:08Z</time>
      </trkpt>
      <trkpt lat="44.21996" lon="0.8447">
        <ele>167.221</ele>
        <time>2017-08-17T11:21:13Z</time>
      </trkpt>
      <trkpt lat="44.21994" lon="0.84475">
        <ele>167.059</ele>
        <time>2017-08-17T11:21:16Z</time>
      </trkpt>
      <trkpt lat="44.21992" lon="0.84476">
        <ele>166.701</ele>
        <time>2017-08-17T11:21:20Z</time>
      </trkpt>
      <trkpt lat="44.21989" lon="0.84493">
        <ele>165.929</ele>
        <time>2017-08-17T11:21:28Z</time>
      </trkpt>
      <trkpt lat="44.2199" lon="0.84495">
        <ele>165.368</ele>
        <time>2017-08-17T11:21:32Z</time>
      </trkpt>
      <trkpt lat="44.21991" lon="0.84496">
        <ele>165.081</ele>
        <time>2017-08-17T11:21:37Z</time>
      </trkpt>
      <trkpt lat="44.2199" lon="0.84499">
        <ele>165.02</ele>
        <time>2017-08-17T11:21:42Z</time>
      </trkpt>
      <trkpt lat="44.2199" lon="0.84499">
        <ele>165.041</ele>
        <time>2017-08-17T11:21:43Z</time>
      </trkpt>
      <trkpt lat="44.21988" lon="0.84517">
        <ele>164.811</ele>
        <time>2017-08-17T11:21:49Z</time>
      </trkpt>
      <trkpt lat="44.21987" lon="0.84549">
        <ele>165.072</ele>
        <time>2017-08-17T11:21:56Z</time>
      </trkpt>
      <trkpt lat="44.21996" lon="0.8456">
        <ele>165.05</ele>
        <time>2017-08-17T11:22:00Z</time>
      </trkpt>
      <trkpt lat="44.22005" lon="0.84556">
        <ele>164.298</ele>
        <time>2017-08-17T11:22:03Z</time>
      </trkpt>
      <trkpt lat="44.22006" lon="0.84551">
        <ele>164.229</ele>
        <time>2017-08-17T11:22:06Z</time>
      </trkpt>
      <trkpt lat="44.22005" lon="0.84552">
        <ele>164.249</ele>
        <time>2017-08-17T11:22:08Z</time>
      </trkpt>
      <trkpt lat="44.22004" lon="0.84553">
        <ele>164.791</ele>
        <time>2017-08-17T11:22:15Z</time>
      </trkpt>
      <trkpt lat="44.22004" lon="0.84552">
        <ele>164.965</ele>
        <time>2017-08-17T11:23:49Z</time>
      </trkpt>
    </trkseg>
  </trk>
</gpx>